<?xml version="1.0" encoding="UTF-8" standalone="no" ?>
<gpx xmlns="http://www.topografix.com/GPX/1/1" xmlns:xsi="http://www.w3.org/2001/XMLSchema-instance" xsi:schemaLocation="http://www.topografix.com/GPX/1/1 http://www.topografix.com/GPX/1/1/gpx.xsd" version="1.1" creator="VisuGPX - https://www.visugpx.com">
  <metadata>
    <name>vtt circuit n°10 saint remy en mauges gr 3</name>
    <desc><![CDATA[sortie vtt du club vsm avec du soleil,circuit des groupes 3 et 4 bonne balade]]></desc>
  </metadata>
  <trk>
    <name><![CDATA[2018-06-16-15-13-29 on GPSies.com]]></name>
    <trkseg>
      <trkpt lat="47.27184" lon="-1.07298">
        <ele>79</ele>
        <time>2018-06-16T15:13:29Z</time>
      </trkpt>
      <trkpt lat="47.27171" lon="-1.07306">
        <ele>80</ele>
        <time>2018-06-16T15:13:55Z</time>
      </trkpt>
      <trkpt lat="47.27167" lon="-1.07308">
        <ele>80</ele>
        <time>2018-06-16T15:13:57Z</time>
      </trkpt>
      <trkpt lat="47.27155" lon="-1.07313">
        <ele>80</ele>
        <time>2018-06-16T15:14:04Z</time>
      </trkpt>
      <trkpt lat="47.27154" lon="-1.07314">
        <ele>80</ele>
        <time>2018-06-16T15:14:05Z</time>
      </trkpt>
      <trkpt lat="47.27145" lon="-1.07317">
        <ele>81</ele>
        <time>2018-06-16T15:14:09Z</time>
      </trkpt>
      <trkpt lat="47.27137" lon="-1.07328">
        <ele>81</ele>
        <time>2018-06-16T15:14:13Z</time>
      </trkpt>
      <trkpt lat="47.27132" lon="-1.07352">
        <ele>81</ele>
        <time>2018-06-16T15:14:19Z</time>
      </trkpt>
      <trkpt lat="47.27126" lon="-1.07375">
        <ele>81</ele>
        <time>2018-06-16T15:14:26Z</time>
      </trkpt>
      <trkpt lat="47.27124" lon="-1.07378">
        <ele>82</ele>
        <time>2018-06-16T15:14:27Z</time>
      </trkpt>
      <trkpt lat="47.2711" lon="-1.07383">
        <ele>82</ele>
        <time>2018-06-16T15:14:32Z</time>
      </trkpt>
      <trkpt lat="47.27081" lon="-1.0739">
        <ele>82</ele>
        <time>2018-06-16T15:14:42Z</time>
      </trkpt>
      <trkpt lat="47.27072" lon="-1.07393">
        <ele>83</ele>
        <time>2018-06-16T15:14:45Z</time>
      </trkpt>
      <trkpt lat="47.27061" lon="-1.07396">
        <ele>83</ele>
        <time>2018-06-16T15:14:50Z</time>
      </trkpt>
      <trkpt lat="47.27051" lon="-1.07401">
        <ele>84</ele>
        <time>2018-06-16T15:14:54Z</time>
      </trkpt>
      <trkpt lat="47.27046" lon="-1.07403">
        <ele>84</ele>
        <time>2018-06-16T15:14:56Z</time>
      </trkpt>
      <trkpt lat="47.27039" lon="-1.07406">
        <ele>85</ele>
        <time>2018-06-16T15:14:59Z</time>
      </trkpt>
      <trkpt lat="47.2703" lon="-1.07412">
        <ele>85</ele>
        <time>2018-06-16T15:15:03Z</time>
      </trkpt>
      <trkpt lat="47.27023" lon="-1.07416">
        <ele>86</ele>
        <time>2018-06-16T15:15:06Z</time>
      </trkpt>
      <trkpt lat="47.27005" lon="-1.07425">
        <ele>87</ele>
        <time>2018-06-16T15:15:13Z</time>
      </trkpt>
      <trkpt lat="47.27002" lon="-1.07427">
        <ele>87</ele>
        <time>2018-06-16T15:15:14Z</time>
      </trkpt>
      <trkpt lat="47.26988" lon="-1.07434">
        <ele>88</ele>
        <time>2018-06-16T15:15:19Z</time>
      </trkpt>
      <trkpt lat="47.26974" lon="-1.07441">
        <ele>88</ele>
        <time>2018-06-16T15:15:24Z</time>
      </trkpt>
      <trkpt lat="47.26954" lon="-1.07452">
        <ele>89</ele>
        <time>2018-06-16T15:15:31Z</time>
      </trkpt>
      <trkpt lat="47.26927" lon="-1.07464">
        <ele>90</ele>
        <time>2018-06-16T15:15:42Z</time>
      </trkpt>
      <trkpt lat="47.26906" lon="-1.07477">
        <ele>90</ele>
        <time>2018-06-16T15:15:50Z</time>
      </trkpt>
      <trkpt lat="47.26885" lon="-1.07489">
        <ele>91</ele>
        <time>2018-06-16T15:15:58Z</time>
      </trkpt>
      <trkpt lat="47.26879" lon="-1.07493">
        <ele>92</ele>
        <time>2018-06-16T15:16:00Z</time>
      </trkpt>
      <trkpt lat="47.26862" lon="-1.07502">
        <ele>92</ele>
        <time>2018-06-16T15:16:06Z</time>
      </trkpt>
      <trkpt lat="47.26856" lon="-1.07505">
        <ele>93</ele>
        <time>2018-06-16T15:16:08Z</time>
      </trkpt>
      <trkpt lat="47.26842" lon="-1.07512">
        <ele>93</ele>
        <time>2018-06-16T15:16:13Z</time>
      </trkpt>
      <trkpt lat="47.2683" lon="-1.07516">
        <ele>94</ele>
        <time>2018-06-16T15:16:17Z</time>
      </trkpt>
      <trkpt lat="47.26821" lon="-1.07519">
        <ele>94</ele>
        <time>2018-06-16T15:16:20Z</time>
      </trkpt>
      <trkpt lat="47.26803" lon="-1.07525">
        <ele>95</ele>
        <time>2018-06-16T15:16:26Z</time>
      </trkpt>
      <trkpt lat="47.26797" lon="-1.07526">
        <ele>96</ele>
        <time>2018-06-16T15:16:28Z</time>
      </trkpt>
      <trkpt lat="47.26777" lon="-1.0753">
        <ele>97</ele>
        <time>2018-06-16T15:16:35Z</time>
      </trkpt>
      <trkpt lat="47.26774" lon="-1.07531">
        <ele>97</ele>
        <time>2018-06-16T15:16:36Z</time>
      </trkpt>
      <trkpt lat="47.2676" lon="-1.07532">
        <ele>98</ele>
        <time>2018-06-16T15:16:41Z</time>
      </trkpt>
      <trkpt lat="47.26749" lon="-1.07534">
        <ele>98</ele>
        <time>2018-06-16T15:16:45Z</time>
      </trkpt>
      <trkpt lat="47.26744" lon="-1.07534">
        <ele>99</ele>
        <time>2018-06-16T15:16:47Z</time>
      </trkpt>
      <trkpt lat="47.26727" lon="-1.07539">
        <ele>100</ele>
        <time>2018-06-16T15:16:53Z</time>
      </trkpt>
      <trkpt lat="47.26723" lon="-1.0754">
        <ele>100</ele>
        <time>2018-06-16T15:16:55Z</time>
      </trkpt>
      <trkpt lat="47.26707" lon="-1.07546">
        <ele>101</ele>
        <time>2018-06-16T15:17:01Z</time>
      </trkpt>
      <trkpt lat="47.26701" lon="-1.07548">
        <ele>101</ele>
        <time>2018-06-16T15:17:03Z</time>
      </trkpt>
      <trkpt lat="47.26684" lon="-1.07556">
        <ele>102</ele>
        <time>2018-06-16T15:17:09Z</time>
      </trkpt>
      <trkpt lat="47.26676" lon="-1.07561">
        <ele>102</ele>
        <time>2018-06-16T15:17:12Z</time>
      </trkpt>
      <trkpt lat="47.2666" lon="-1.07569">
        <ele>103</ele>
        <time>2018-06-16T15:17:18Z</time>
      </trkpt>
      <trkpt lat="47.2664" lon="-1.07578">
        <ele>103</ele>
        <time>2018-06-16T15:17:25Z</time>
      </trkpt>
      <trkpt lat="47.26635" lon="-1.0758">
        <ele>103</ele>
        <time>2018-06-16T15:17:27Z</time>
      </trkpt>
      <trkpt lat="47.26622" lon="-1.07577">
        <ele>104</ele>
        <time>2018-06-16T15:17:32Z</time>
      </trkpt>
      <trkpt lat="47.26618" lon="-1.07571">
        <ele>104</ele>
        <time>2018-06-16T15:17:34Z</time>
      </trkpt>
      <trkpt lat="47.26611" lon="-1.07556">
        <ele>105</ele>
        <time>2018-06-16T15:17:38Z</time>
      </trkpt>
      <trkpt lat="47.26598" lon="-1.0753">
        <ele>105</ele>
        <time>2018-06-16T15:17:45Z</time>
      </trkpt>
      <trkpt lat="47.26596" lon="-1.07527">
        <ele>105</ele>
        <time>2018-06-16T15:17:46Z</time>
      </trkpt>
      <trkpt lat="47.26583" lon="-1.07504">
        <ele>106</ele>
        <time>2018-06-16T15:17:53Z</time>
      </trkpt>
      <trkpt lat="47.26578" lon="-1.07486">
        <ele>106</ele>
        <time>2018-06-16T15:17:59Z</time>
      </trkpt>
      <trkpt lat="47.26574" lon="-1.07474">
        <ele>106</ele>
        <time>2018-06-16T15:18:03Z</time>
      </trkpt>
      <trkpt lat="47.26572" lon="-1.07463">
        <ele>106</ele>
        <time>2018-06-16T15:18:06Z</time>
      </trkpt>
      <trkpt lat="47.26562" lon="-1.07436">
        <ele>106</ele>
        <time>2018-06-16T15:18:13Z</time>
      </trkpt>
      <trkpt lat="47.26551" lon="-1.07406">
        <ele>106</ele>
        <time>2018-06-16T15:18:21Z</time>
      </trkpt>
      <trkpt lat="47.26549" lon="-1.07402">
        <ele>106</ele>
        <time>2018-06-16T15:18:34Z</time>
      </trkpt>
      <trkpt lat="47.26548" lon="-1.074">
        <ele>106</ele>
        <time>2018-06-16T15:18:35Z</time>
      </trkpt>
      <trkpt lat="47.26541" lon="-1.07382">
        <ele>105</ele>
        <time>2018-06-16T15:18:40Z</time>
      </trkpt>
      <trkpt lat="47.26539" lon="-1.07378">
        <ele>105</ele>
        <time>2018-06-16T15:18:41Z</time>
      </trkpt>
      <trkpt lat="47.26527" lon="-1.07348">
        <ele>105</ele>
        <time>2018-06-16T15:18:47Z</time>
      </trkpt>
      <trkpt lat="47.26525" lon="-1.07343">
        <ele>105</ele>
        <time>2018-06-16T15:18:48Z</time>
      </trkpt>
      <trkpt lat="47.26512" lon="-1.07317">
        <ele>104</ele>
        <time>2018-06-16T15:18:53Z</time>
      </trkpt>
      <trkpt lat="47.26508" lon="-1.07311">
        <ele>104</ele>
        <time>2018-06-16T15:18:54Z</time>
      </trkpt>
      <trkpt lat="47.26502" lon="-1.07298">
        <ele>104</ele>
        <time>2018-06-16T15:18:56Z</time>
      </trkpt>
      <trkpt lat="47.26498" lon="-1.07275">
        <ele>103</ele>
        <time>2018-06-16T15:18:59Z</time>
      </trkpt>
      <trkpt lat="47.26498" lon="-1.07268">
        <ele>103</ele>
        <time>2018-06-16T15:19:00Z</time>
      </trkpt>
      <trkpt lat="47.26499" lon="-1.07261">
        <ele>103</ele>
        <time>2018-06-16T15:19:01Z</time>
      </trkpt>
      <trkpt lat="47.26502" lon="-1.0724">
        <ele>103</ele>
        <time>2018-06-16T15:19:04Z</time>
      </trkpt>
      <trkpt lat="47.26504" lon="-1.07232">
        <ele>102</ele>
        <time>2018-06-16T15:19:05Z</time>
      </trkpt>
      <trkpt lat="47.26509" lon="-1.07216">
        <ele>102</ele>
        <time>2018-06-16T15:19:07Z</time>
      </trkpt>
      <trkpt lat="47.26515" lon="-1.072">
        <ele>102</ele>
        <time>2018-06-16T15:19:09Z</time>
      </trkpt>
      <trkpt lat="47.26525" lon="-1.07173">
        <ele>101</ele>
        <time>2018-06-16T15:19:12Z</time>
      </trkpt>
      <trkpt lat="47.2654" lon="-1.07139">
        <ele>100</ele>
        <time>2018-06-16T15:19:16Z</time>
      </trkpt>
      <trkpt lat="47.26548" lon="-1.07123">
        <ele>100</ele>
        <time>2018-06-16T15:19:18Z</time>
      </trkpt>
      <trkpt lat="47.26575" lon="-1.07076">
        <ele>99</ele>
        <time>2018-06-16T15:19:24Z</time>
      </trkpt>
      <trkpt lat="47.26578" lon="-1.07068">
        <ele>99</ele>
        <time>2018-06-16T15:19:25Z</time>
      </trkpt>
      <trkpt lat="47.26599" lon="-1.0702">
        <ele>98</ele>
        <time>2018-06-16T15:19:31Z</time>
      </trkpt>
      <trkpt lat="47.26601" lon="-1.07013">
        <ele>98</ele>
        <time>2018-06-16T15:19:32Z</time>
      </trkpt>
      <trkpt lat="47.26613" lon="-1.06982">
        <ele>97</ele>
        <time>2018-06-16T15:19:37Z</time>
      </trkpt>
      <trkpt lat="47.26619" lon="-1.06961">
        <ele>97</ele>
        <time>2018-06-16T15:19:40Z</time>
      </trkpt>
      <trkpt lat="47.26621" lon="-1.06938">
        <ele>97</ele>
        <time>2018-06-16T15:19:43Z</time>
      </trkpt>
      <trkpt lat="47.26621" lon="-1.0692">
        <ele>97</ele>
        <time>2018-06-16T15:19:45Z</time>
      </trkpt>
      <trkpt lat="47.26625" lon="-1.06876">
        <ele>96</ele>
        <time>2018-06-16T15:19:50Z</time>
      </trkpt>
      <trkpt lat="47.2663" lon="-1.06818">
        <ele>96</ele>
        <time>2018-06-16T15:19:57Z</time>
      </trkpt>
      <trkpt lat="47.2663" lon="-1.0681">
        <ele>96</ele>
        <time>2018-06-16T15:19:58Z</time>
      </trkpt>
      <trkpt lat="47.26629" lon="-1.06771">
        <ele>95</ele>
        <time>2018-06-16T15:20:03Z</time>
      </trkpt>
      <trkpt lat="47.26627" lon="-1.0675">
        <ele>94</ele>
        <time>2018-06-16T15:20:06Z</time>
      </trkpt>
      <trkpt lat="47.26624" lon="-1.06698">
        <ele>93</ele>
        <time>2018-06-16T15:20:13Z</time>
      </trkpt>
      <trkpt lat="47.26624" lon="-1.0667">
        <ele>93</ele>
        <time>2018-06-16T15:20:18Z</time>
      </trkpt>
      <trkpt lat="47.26625" lon="-1.06662">
        <ele>92</ele>
        <time>2018-06-16T15:20:20Z</time>
      </trkpt>
      <trkpt lat="47.26624" lon="-1.06648">
        <ele>92</ele>
        <time>2018-06-16T15:20:24Z</time>
      </trkpt>
      <trkpt lat="47.26627" lon="-1.06618">
        <ele>92</ele>
        <time>2018-06-16T15:20:31Z</time>
      </trkpt>
      <trkpt lat="47.26634" lon="-1.06582">
        <ele>91</ele>
        <time>2018-06-16T15:20:37Z</time>
      </trkpt>
      <trkpt lat="47.26635" lon="-1.06577">
        <ele>91</ele>
        <time>2018-06-16T15:20:38Z</time>
      </trkpt>
      <trkpt lat="47.26642" lon="-1.06555">
        <ele>91</ele>
        <time>2018-06-16T15:20:43Z</time>
      </trkpt>
      <trkpt lat="47.26646" lon="-1.06543">
        <ele>90</ele>
        <time>2018-06-16T15:20:46Z</time>
      </trkpt>
      <trkpt lat="47.2665" lon="-1.06528">
        <ele>89</ele>
        <time>2018-06-16T15:20:49Z</time>
      </trkpt>
      <trkpt lat="47.26653" lon="-1.06513">
        <ele>89</ele>
        <time>2018-06-16T15:20:52Z</time>
      </trkpt>
      <trkpt lat="47.2666" lon="-1.06484">
        <ele>88</ele>
        <time>2018-06-16T15:20:57Z</time>
      </trkpt>
      <trkpt lat="47.26661" lon="-1.06478">
        <ele>88</ele>
        <time>2018-06-16T15:20:58Z</time>
      </trkpt>
      <trkpt lat="47.2666" lon="-1.06456">
        <ele>87</ele>
        <time>2018-06-16T15:21:02Z</time>
      </trkpt>
      <trkpt lat="47.26655" lon="-1.06441">
        <ele>87</ele>
        <time>2018-06-16T15:21:05Z</time>
      </trkpt>
      <trkpt lat="47.26648" lon="-1.06432">
        <ele>86</ele>
        <time>2018-06-16T15:21:08Z</time>
      </trkpt>
      <trkpt lat="47.26639" lon="-1.06423">
        <ele>86</ele>
        <time>2018-06-16T15:21:11Z</time>
      </trkpt>
      <trkpt lat="47.26636" lon="-1.0642">
        <ele>86</ele>
        <time>2018-06-16T15:21:12Z</time>
      </trkpt>
      <trkpt lat="47.26628" lon="-1.06413">
        <ele>86</ele>
        <time>2018-06-16T15:21:14Z</time>
      </trkpt>
      <trkpt lat="47.26612" lon="-1.06395">
        <ele>85</ele>
        <time>2018-06-16T15:21:18Z</time>
      </trkpt>
      <trkpt lat="47.26609" lon="-1.06389">
        <ele>85</ele>
        <time>2018-06-16T15:21:19Z</time>
      </trkpt>
      <trkpt lat="47.26605" lon="-1.06373">
        <ele>84</ele>
        <time>2018-06-16T15:21:22Z</time>
      </trkpt>
      <trkpt lat="47.26606" lon="-1.06367">
        <ele>84</ele>
        <time>2018-06-16T15:21:23Z</time>
      </trkpt>
      <trkpt lat="47.26611" lon="-1.06341">
        <ele>85</ele>
        <time>2018-06-16T15:21:29Z</time>
      </trkpt>
      <trkpt lat="47.26612" lon="-1.06332">
        <ele>86</ele>
        <time>2018-06-16T15:21:32Z</time>
      </trkpt>
      <trkpt lat="47.26614" lon="-1.06322">
        <ele>87</ele>
        <time>2018-06-16T15:21:35Z</time>
      </trkpt>
      <trkpt lat="47.26614" lon="-1.06319">
        <ele>87</ele>
        <time>2018-06-16T15:21:36Z</time>
      </trkpt>
      <trkpt lat="47.26615" lon="-1.06308">
        <ele>88</ele>
        <time>2018-06-16T15:21:39Z</time>
      </trkpt>
      <trkpt lat="47.26617" lon="-1.06287">
        <ele>89</ele>
        <time>2018-06-16T15:21:44Z</time>
      </trkpt>
      <trkpt lat="47.26618" lon="-1.06283">
        <ele>90</ele>
        <time>2018-06-16T15:21:45Z</time>
      </trkpt>
      <trkpt lat="47.26624" lon="-1.0626">
        <ele>90</ele>
        <time>2018-06-16T15:21:50Z</time>
      </trkpt>
      <trkpt lat="47.26626" lon="-1.0625">
        <ele>91</ele>
        <time>2018-06-16T15:21:52Z</time>
      </trkpt>
      <trkpt lat="47.2663" lon="-1.06235">
        <ele>91</ele>
        <time>2018-06-16T15:21:55Z</time>
      </trkpt>
      <trkpt lat="47.26636" lon="-1.06216">
        <ele>92</ele>
        <time>2018-06-16T15:21:59Z</time>
      </trkpt>
      <trkpt lat="47.26646" lon="-1.06185">
        <ele>92</ele>
        <time>2018-06-16T15:22:05Z</time>
      </trkpt>
      <trkpt lat="47.26661" lon="-1.06143">
        <ele>92</ele>
        <time>2018-06-16T15:22:13Z</time>
      </trkpt>
      <trkpt lat="47.26665" lon="-1.0612">
        <ele>92</ele>
        <time>2018-06-16T15:22:17Z</time>
      </trkpt>
      <trkpt lat="47.26667" lon="-1.06108">
        <ele>92</ele>
        <time>2018-06-16T15:22:19Z</time>
      </trkpt>
      <trkpt lat="47.26667" lon="-1.06062">
        <ele>92</ele>
        <time>2018-06-16T15:22:26Z</time>
      </trkpt>
      <trkpt lat="47.26666" lon="-1.06055">
        <ele>92</ele>
        <time>2018-06-16T15:22:27Z</time>
      </trkpt>
      <trkpt lat="47.26656" lon="-1.06032">
        <ele>91</ele>
        <time>2018-06-16T15:22:31Z</time>
      </trkpt>
      <trkpt lat="47.26652" lon="-1.06021">
        <ele>91</ele>
        <time>2018-06-16T15:22:33Z</time>
      </trkpt>
      <trkpt lat="47.26651" lon="-1.06008">
        <ele>91</ele>
        <time>2018-06-16T15:22:35Z</time>
      </trkpt>
      <trkpt lat="47.26652" lon="-1.05995">
        <ele>91</ele>
        <time>2018-06-16T15:22:37Z</time>
      </trkpt>
      <trkpt lat="47.26654" lon="-1.05974">
        <ele>91</ele>
        <time>2018-06-16T15:22:40Z</time>
      </trkpt>
      <trkpt lat="47.26657" lon="-1.05938">
        <ele>90</ele>
        <time>2018-06-16T15:22:45Z</time>
      </trkpt>
      <trkpt lat="47.26659" lon="-1.05916">
        <ele>90</ele>
        <time>2018-06-16T15:22:48Z</time>
      </trkpt>
      <trkpt lat="47.26658" lon="-1.05891">
        <ele>90</ele>
        <time>2018-06-16T15:22:53Z</time>
      </trkpt>
      <trkpt lat="47.26658" lon="-1.05888">
        <ele>89</ele>
        <time>2018-06-16T15:22:55Z</time>
      </trkpt>
      <trkpt lat="47.26659" lon="-1.05882">
        <ele>89</ele>
        <time>2018-06-16T15:22:59Z</time>
      </trkpt>
      <trkpt lat="47.26658" lon="-1.05875">
        <ele>89</ele>
        <time>2018-06-16T15:23:04Z</time>
      </trkpt>
      <trkpt lat="47.26656" lon="-1.05868">
        <ele>89</ele>
        <time>2018-06-16T15:23:07Z</time>
      </trkpt>
      <trkpt lat="47.26647" lon="-1.0585">
        <ele>89</ele>
        <time>2018-06-16T15:23:14Z</time>
      </trkpt>
      <trkpt lat="47.26636" lon="-1.0583">
        <ele>88</ele>
        <time>2018-06-16T15:23:19Z</time>
      </trkpt>
      <trkpt lat="47.26633" lon="-1.05825">
        <ele>88</ele>
        <time>2018-06-16T15:23:20Z</time>
      </trkpt>
      <trkpt lat="47.26618" lon="-1.05794">
        <ele>87</ele>
        <time>2018-06-16T15:23:25Z</time>
      </trkpt>
      <trkpt lat="47.26614" lon="-1.05788">
        <ele>87</ele>
        <time>2018-06-16T15:23:26Z</time>
      </trkpt>
      <trkpt lat="47.26604" lon="-1.05768">
        <ele>86</ele>
        <time>2018-06-16T15:23:29Z</time>
      </trkpt>
      <trkpt lat="47.26589" lon="-1.05742">
        <ele>85</ele>
        <time>2018-06-16T15:23:33Z</time>
      </trkpt>
      <trkpt lat="47.26578" lon="-1.05724">
        <ele>84</ele>
        <time>2018-06-16T15:23:36Z</time>
      </trkpt>
      <trkpt lat="47.26565" lon="-1.05708">
        <ele>82</ele>
        <time>2018-06-16T15:23:39Z</time>
      </trkpt>
      <trkpt lat="47.26551" lon="-1.05696">
        <ele>81</ele>
        <time>2018-06-16T15:23:42Z</time>
      </trkpt>
      <trkpt lat="47.26537" lon="-1.05685">
        <ele>80</ele>
        <time>2018-06-16T15:23:45Z</time>
      </trkpt>
      <trkpt lat="47.26523" lon="-1.05673">
        <ele>78</ele>
        <time>2018-06-16T15:23:48Z</time>
      </trkpt>
      <trkpt lat="47.26508" lon="-1.05664">
        <ele>77</ele>
        <time>2018-06-16T15:23:51Z</time>
      </trkpt>
      <trkpt lat="47.26504" lon="-1.05661">
        <ele>76</ele>
        <time>2018-06-16T15:23:52Z</time>
      </trkpt>
      <trkpt lat="47.26498" lon="-1.05657">
        <ele>76</ele>
        <time>2018-06-16T15:23:54Z</time>
      </trkpt>
      <trkpt lat="47.26492" lon="-1.05656">
        <ele>75</ele>
        <time>2018-06-16T15:23:56Z</time>
      </trkpt>
      <trkpt lat="47.26489" lon="-1.05655">
        <ele>75</ele>
        <time>2018-06-16T15:23:57Z</time>
      </trkpt>
      <trkpt lat="47.26482" lon="-1.05653">
        <ele>73</ele>
        <time>2018-06-16T15:24:01Z</time>
      </trkpt>
      <trkpt lat="47.26477" lon="-1.0565">
        <ele>72</ele>
        <time>2018-06-16T15:24:05Z</time>
      </trkpt>
      <trkpt lat="47.26473" lon="-1.05643">
        <ele>67</ele>
        <time>2018-06-16T15:25:21Z</time>
      </trkpt>
      <trkpt lat="47.26476" lon="-1.05622">
        <ele>66</ele>
        <time>2018-06-16T15:25:26Z</time>
      </trkpt>
      <trkpt lat="47.26483" lon="-1.05604">
        <ele>66</ele>
        <time>2018-06-16T15:25:31Z</time>
      </trkpt>
      <trkpt lat="47.26486" lon="-1.05594">
        <ele>65</ele>
        <time>2018-06-16T15:25:34Z</time>
      </trkpt>
      <trkpt lat="47.26492" lon="-1.05562">
        <ele>65</ele>
        <time>2018-06-16T15:25:41Z</time>
      </trkpt>
      <trkpt lat="47.26501" lon="-1.05515">
        <ele>65</ele>
        <time>2018-06-16T15:25:48Z</time>
      </trkpt>
      <trkpt lat="47.26503" lon="-1.05498">
        <ele>64</ele>
        <time>2018-06-16T15:25:52Z</time>
      </trkpt>
      <trkpt lat="47.26502" lon="-1.05496">
        <ele>64</ele>
        <time>2018-06-16T15:25:53Z</time>
      </trkpt>
      <trkpt lat="47.26501" lon="-1.05495">
        <ele>64</ele>
        <time>2018-06-16T15:26:10Z</time>
      </trkpt>
      <trkpt lat="47.26497" lon="-1.05493">
        <ele>64</ele>
        <time>2018-06-16T15:26:11Z</time>
      </trkpt>
      <trkpt lat="47.26486" lon="-1.05484">
        <ele>63</ele>
        <time>2018-06-16T15:26:13Z</time>
      </trkpt>
      <trkpt lat="47.2648" lon="-1.05479">
        <ele>63</ele>
        <time>2018-06-16T15:26:14Z</time>
      </trkpt>
      <trkpt lat="47.26474" lon="-1.05475">
        <ele>62</ele>
        <time>2018-06-16T15:26:15Z</time>
      </trkpt>
      <trkpt lat="47.26463" lon="-1.05467">
        <ele>60</ele>
        <time>2018-06-16T15:26:17Z</time>
      </trkpt>
      <trkpt lat="47.26452" lon="-1.0546">
        <ele>59</ele>
        <time>2018-06-16T15:26:19Z</time>
      </trkpt>
      <trkpt lat="47.2644" lon="-1.05452">
        <ele>57</ele>
        <time>2018-06-16T15:26:21Z</time>
      </trkpt>
      <trkpt lat="47.26429" lon="-1.05445">
        <ele>56</ele>
        <time>2018-06-16T15:26:23Z</time>
      </trkpt>
      <trkpt lat="47.26419" lon="-1.05438">
        <ele>55</ele>
        <time>2018-06-16T15:26:25Z</time>
      </trkpt>
      <trkpt lat="47.26401" lon="-1.05426">
        <ele>54</ele>
        <time>2018-06-16T15:26:29Z</time>
      </trkpt>
      <trkpt lat="47.26392" lon="-1.05418">
        <ele>53</ele>
        <time>2018-06-16T15:26:33Z</time>
      </trkpt>
      <trkpt lat="47.26389" lon="-1.05416">
        <ele>53</ele>
        <time>2018-06-16T15:26:34Z</time>
      </trkpt>
      <trkpt lat="47.26385" lon="-1.05407">
        <ele>52</ele>
        <time>2018-06-16T15:26:37Z</time>
      </trkpt>
      <trkpt lat="47.26384" lon="-1.05381">
        <ele>52</ele>
        <time>2018-06-16T15:26:43Z</time>
      </trkpt>
      <trkpt lat="47.26388" lon="-1.05336">
        <ele>53</ele>
        <time>2018-06-16T15:26:50Z</time>
      </trkpt>
      <trkpt lat="47.26395" lon="-1.05276">
        <ele>52</ele>
        <time>2018-06-16T15:26:57Z</time>
      </trkpt>
      <trkpt lat="47.26397" lon="-1.05231">
        <ele>52</ele>
        <time>2018-06-16T15:27:02Z</time>
      </trkpt>
      <trkpt lat="47.26396" lon="-1.05213">
        <ele>51</ele>
        <time>2018-06-16T15:27:04Z</time>
      </trkpt>
      <trkpt lat="47.26398" lon="-1.0519">
        <ele>51</ele>
        <time>2018-06-16T15:27:07Z</time>
      </trkpt>
      <trkpt lat="47.26399" lon="-1.05174">
        <ele>50</ele>
        <time>2018-06-16T15:27:09Z</time>
      </trkpt>
      <trkpt lat="47.26399" lon="-1.05147">
        <ele>49</ele>
        <time>2018-06-16T15:27:12Z</time>
      </trkpt>
      <trkpt lat="47.26399" lon="-1.05122">
        <ele>49</ele>
        <time>2018-06-16T15:27:15Z</time>
      </trkpt>
      <trkpt lat="47.264" lon="-1.05088">
        <ele>48</ele>
        <time>2018-06-16T15:27:19Z</time>
      </trkpt>
      <trkpt lat="47.26402" lon="-1.05064">
        <ele>48</ele>
        <time>2018-06-16T15:27:22Z</time>
      </trkpt>
      <trkpt lat="47.26404" lon="-1.05041">
        <ele>47</ele>
        <time>2018-06-16T15:27:25Z</time>
      </trkpt>
      <trkpt lat="47.2641" lon="-1.05">
        <ele>46</ele>
        <time>2018-06-16T15:27:30Z</time>
      </trkpt>
      <trkpt lat="47.26415" lon="-1.04954">
        <ele>45</ele>
        <time>2018-06-16T15:27:36Z</time>
      </trkpt>
      <trkpt lat="47.26415" lon="-1.04946">
        <ele>45</ele>
        <time>2018-06-16T15:27:37Z</time>
      </trkpt>
      <trkpt lat="47.26415" lon="-1.04913">
        <ele>44</ele>
        <time>2018-06-16T15:27:43Z</time>
      </trkpt>
      <trkpt lat="47.26415" lon="-1.04899">
        <ele>44</ele>
        <time>2018-06-16T15:27:55Z</time>
      </trkpt>
      <trkpt lat="47.26415" lon="-1.0489">
        <ele>44</ele>
        <time>2018-06-16T15:27:58Z</time>
      </trkpt>
      <trkpt lat="47.26416" lon="-1.04881">
        <ele>44</ele>
        <time>2018-06-16T15:28:00Z</time>
      </trkpt>
      <trkpt lat="47.26418" lon="-1.04859">
        <ele>43</ele>
        <time>2018-06-16T15:28:04Z</time>
      </trkpt>
      <trkpt lat="47.2642" lon="-1.04838">
        <ele>43</ele>
        <time>2018-06-16T15:28:08Z</time>
      </trkpt>
      <trkpt lat="47.26421" lon="-1.04823">
        <ele>42</ele>
        <time>2018-06-16T15:28:11Z</time>
      </trkpt>
      <trkpt lat="47.2642" lon="-1.04817">
        <ele>42</ele>
        <time>2018-06-16T15:28:12Z</time>
      </trkpt>
      <trkpt lat="47.26419" lon="-1.04811">
        <ele>42</ele>
        <time>2018-06-16T15:28:13Z</time>
      </trkpt>
      <trkpt lat="47.26415" lon="-1.04791">
        <ele>41</ele>
        <time>2018-06-16T15:28:16Z</time>
      </trkpt>
      <trkpt lat="47.26414" lon="-1.04783">
        <ele>41</ele>
        <time>2018-06-16T15:28:17Z</time>
      </trkpt>
      <trkpt lat="47.26412" lon="-1.04755">
        <ele>40</ele>
        <time>2018-06-16T15:28:20Z</time>
      </trkpt>
      <trkpt lat="47.26411" lon="-1.04745">
        <ele>39</ele>
        <time>2018-06-16T15:28:21Z</time>
      </trkpt>
      <trkpt lat="47.26409" lon="-1.04725">
        <ele>38</ele>
        <time>2018-06-16T15:28:23Z</time>
      </trkpt>
      <trkpt lat="47.26408" lon="-1.04716">
        <ele>37</ele>
        <time>2018-06-16T15:28:24Z</time>
      </trkpt>
      <trkpt lat="47.26406" lon="-1.04706">
        <ele>36</ele>
        <time>2018-06-16T15:28:25Z</time>
      </trkpt>
      <trkpt lat="47.26404" lon="-1.04697">
        <ele>36</ele>
        <time>2018-06-16T15:28:26Z</time>
      </trkpt>
      <trkpt lat="47.264" lon="-1.04688">
        <ele>35</ele>
        <time>2018-06-16T15:28:27Z</time>
      </trkpt>
      <trkpt lat="47.26396" lon="-1.0468">
        <ele>35</ele>
        <time>2018-06-16T15:28:28Z</time>
      </trkpt>
      <trkpt lat="47.26392" lon="-1.04673">
        <ele>34</ele>
        <time>2018-06-16T15:28:29Z</time>
      </trkpt>
      <trkpt lat="47.26385" lon="-1.0466">
        <ele>34</ele>
        <time>2018-06-16T15:28:31Z</time>
      </trkpt>
      <trkpt lat="47.26371" lon="-1.04641">
        <ele>34</ele>
        <time>2018-06-16T15:28:36Z</time>
      </trkpt>
      <trkpt lat="47.26348" lon="-1.04611">
        <ele>34</ele>
        <time>2018-06-16T15:28:44Z</time>
      </trkpt>
      <trkpt lat="47.2634" lon="-1.04601">
        <ele>34</ele>
        <time>2018-06-16T15:28:48Z</time>
      </trkpt>
      <trkpt lat="47.26335" lon="-1.04601">
        <ele>34</ele>
        <time>2018-06-16T15:28:50Z</time>
      </trkpt>
      <trkpt lat="47.26329" lon="-1.046">
        <ele>35</ele>
        <time>2018-06-16T15:28:53Z</time>
      </trkpt>
      <trkpt lat="47.26326" lon="-1.04601">
        <ele>35</ele>
        <time>2018-06-16T15:28:55Z</time>
      </trkpt>
      <trkpt lat="47.26322" lon="-1.04601">
        <ele>36</ele>
        <time>2018-06-16T15:28:57Z</time>
      </trkpt>
      <trkpt lat="47.26316" lon="-1.046">
        <ele>37</ele>
        <time>2018-06-16T15:29:00Z</time>
      </trkpt>
      <trkpt lat="47.26311" lon="-1.04601">
        <ele>38</ele>
        <time>2018-06-16T15:29:03Z</time>
      </trkpt>
      <trkpt lat="47.2631" lon="-1.04601">
        <ele>38</ele>
        <time>2018-06-16T15:29:04Z</time>
      </trkpt>
      <trkpt lat="47.26305" lon="-1.046">
        <ele>39</ele>
        <time>2018-06-16T15:29:07Z</time>
      </trkpt>
      <trkpt lat="47.263" lon="-1.046">
        <ele>41</ele>
        <time>2018-06-16T15:29:10Z</time>
      </trkpt>
      <trkpt lat="47.26297" lon="-1.046">
        <ele>41</ele>
        <time>2018-06-16T15:29:12Z</time>
      </trkpt>
      <trkpt lat="47.26295" lon="-1.046">
        <ele>42</ele>
        <time>2018-06-16T15:29:13Z</time>
      </trkpt>
      <trkpt lat="47.26288" lon="-1.04601">
        <ele>43</ele>
        <time>2018-06-16T15:29:17Z</time>
      </trkpt>
      <trkpt lat="47.26283" lon="-1.04601">
        <ele>45</ele>
        <time>2018-06-16T15:29:20Z</time>
      </trkpt>
      <trkpt lat="47.26281" lon="-1.04602">
        <ele>45</ele>
        <time>2018-06-16T15:29:21Z</time>
      </trkpt>
      <trkpt lat="47.26278" lon="-1.04603">
        <ele>46</ele>
        <time>2018-06-16T15:29:23Z</time>
      </trkpt>
      <trkpt lat="47.26272" lon="-1.04605">
        <ele>47</ele>
        <time>2018-06-16T15:29:27Z</time>
      </trkpt>
      <trkpt lat="47.26265" lon="-1.04608">
        <ele>48</ele>
        <time>2018-06-16T15:29:31Z</time>
      </trkpt>
      <trkpt lat="47.26256" lon="-1.04612">
        <ele>49</ele>
        <time>2018-06-16T15:29:35Z</time>
      </trkpt>
      <trkpt lat="47.26251" lon="-1.04616">
        <ele>50</ele>
        <time>2018-06-16T15:29:38Z</time>
      </trkpt>
      <trkpt lat="47.26241" lon="-1.04621">
        <ele>51</ele>
        <time>2018-06-16T15:29:43Z</time>
      </trkpt>
      <trkpt lat="47.26234" lon="-1.04626">
        <ele>52</ele>
        <time>2018-06-16T15:29:46Z</time>
      </trkpt>
      <trkpt lat="47.26232" lon="-1.04627">
        <ele>53</ele>
        <time>2018-06-16T15:29:47Z</time>
      </trkpt>
      <trkpt lat="47.26226" lon="-1.04628">
        <ele>54</ele>
        <time>2018-06-16T15:29:51Z</time>
      </trkpt>
      <trkpt lat="47.26225" lon="-1.04626">
        <ele>54</ele>
        <time>2018-06-16T15:29:53Z</time>
      </trkpt>
      <trkpt lat="47.26223" lon="-1.04623">
        <ele>55</ele>
        <time>2018-06-16T15:29:55Z</time>
      </trkpt>
      <trkpt lat="47.26223" lon="-1.04621">
        <ele>55</ele>
        <time>2018-06-16T15:29:56Z</time>
      </trkpt>
      <trkpt lat="47.2622" lon="-1.04614">
        <ele>56</ele>
        <time>2018-06-16T15:29:59Z</time>
      </trkpt>
      <trkpt lat="47.26219" lon="-1.04612">
        <ele>56</ele>
        <time>2018-06-16T15:30:00Z</time>
      </trkpt>
      <trkpt lat="47.26216" lon="-1.04605">
        <ele>57</ele>
        <time>2018-06-16T15:30:03Z</time>
      </trkpt>
      <trkpt lat="47.26214" lon="-1.04603">
        <ele>57</ele>
        <time>2018-06-16T15:30:04Z</time>
      </trkpt>
      <trkpt lat="47.26211" lon="-1.04602">
        <ele>58</ele>
        <time>2018-06-16T15:30:06Z</time>
      </trkpt>
      <trkpt lat="47.26203" lon="-1.04588">
        <ele>59</ele>
        <time>2018-06-16T15:31:46Z</time>
      </trkpt>
      <trkpt lat="47.262" lon="-1.04584">
        <ele>60</ele>
        <time>2018-06-16T15:31:48Z</time>
      </trkpt>
      <trkpt lat="47.2619" lon="-1.04566">
        <ele>60</ele>
        <time>2018-06-16T15:31:55Z</time>
      </trkpt>
      <trkpt lat="47.26192" lon="-1.04558">
        <ele>60</ele>
        <time>2018-06-16T15:31:58Z</time>
      </trkpt>
      <trkpt lat="47.26194" lon="-1.0455">
        <ele>59</ele>
        <time>2018-06-16T15:32:02Z</time>
      </trkpt>
      <trkpt lat="47.26199" lon="-1.04537">
        <ele>59</ele>
        <time>2018-06-16T15:32:41Z</time>
      </trkpt>
      <trkpt lat="47.26196" lon="-1.04529">
        <ele>59</ele>
        <time>2018-06-16T15:32:44Z</time>
      </trkpt>
      <trkpt lat="47.26192" lon="-1.04525">
        <ele>59</ele>
        <time>2018-06-16T15:32:46Z</time>
      </trkpt>
      <trkpt lat="47.26189" lon="-1.04525">
        <ele>58</ele>
        <time>2018-06-16T15:32:47Z</time>
      </trkpt>
      <trkpt lat="47.26186" lon="-1.04525">
        <ele>58</ele>
        <time>2018-06-16T15:32:48Z</time>
      </trkpt>
      <trkpt lat="47.2618" lon="-1.04527">
        <ele>57</ele>
        <time>2018-06-16T15:32:50Z</time>
      </trkpt>
      <trkpt lat="47.26173" lon="-1.04523">
        <ele>56</ele>
        <time>2018-06-16T15:32:53Z</time>
      </trkpt>
      <trkpt lat="47.26171" lon="-1.0452">
        <ele>56</ele>
        <time>2018-06-16T15:32:54Z</time>
      </trkpt>
      <trkpt lat="47.26163" lon="-1.04502">
        <ele>55</ele>
        <time>2018-06-16T15:32:57Z</time>
      </trkpt>
      <trkpt lat="47.26159" lon="-1.04497">
        <ele>54</ele>
        <time>2018-06-16T15:32:58Z</time>
      </trkpt>
      <trkpt lat="47.2615" lon="-1.04488">
        <ele>53</ele>
        <time>2018-06-16T15:33:00Z</time>
      </trkpt>
      <trkpt lat="47.2614" lon="-1.04479">
        <ele>52</ele>
        <time>2018-06-16T15:33:02Z</time>
      </trkpt>
      <trkpt lat="47.26129" lon="-1.0447">
        <ele>50</ele>
        <time>2018-06-16T15:33:04Z</time>
      </trkpt>
      <trkpt lat="47.26118" lon="-1.04463">
        <ele>49</ele>
        <time>2018-06-16T15:33:06Z</time>
      </trkpt>
      <trkpt lat="47.26108" lon="-1.04455">
        <ele>47</ele>
        <time>2018-06-16T15:33:08Z</time>
      </trkpt>
      <trkpt lat="47.26099" lon="-1.04445">
        <ele>46</ele>
        <time>2018-06-16T15:33:10Z</time>
      </trkpt>
      <trkpt lat="47.2609" lon="-1.04435">
        <ele>44</ele>
        <time>2018-06-16T15:33:12Z</time>
      </trkpt>
      <trkpt lat="47.26086" lon="-1.04428">
        <ele>43</ele>
        <time>2018-06-16T15:33:13Z</time>
      </trkpt>
      <trkpt lat="47.26082" lon="-1.04414">
        <ele>42</ele>
        <time>2018-06-16T15:33:15Z</time>
      </trkpt>
      <trkpt lat="47.26079" lon="-1.04399">
        <ele>41</ele>
        <time>2018-06-16T15:33:17Z</time>
      </trkpt>
      <trkpt lat="47.26075" lon="-1.04389">
        <ele>40</ele>
        <time>2018-06-16T15:33:19Z</time>
      </trkpt>
      <trkpt lat="47.26073" lon="-1.04386">
        <ele>39</ele>
        <time>2018-06-16T15:33:20Z</time>
      </trkpt>
      <trkpt lat="47.2607" lon="-1.04384">
        <ele>39</ele>
        <time>2018-06-16T15:33:21Z</time>
      </trkpt>
      <trkpt lat="47.26067" lon="-1.04384">
        <ele>38</ele>
        <time>2018-06-16T15:33:22Z</time>
      </trkpt>
      <trkpt lat="47.26061" lon="-1.04385">
        <ele>38</ele>
        <time>2018-06-16T15:33:24Z</time>
      </trkpt>
      <trkpt lat="47.26057" lon="-1.04387">
        <ele>38</ele>
        <time>2018-06-16T15:33:25Z</time>
      </trkpt>
      <trkpt lat="47.26045" lon="-1.04394">
        <ele>37</ele>
        <time>2018-06-16T15:33:29Z</time>
      </trkpt>
      <trkpt lat="47.26039" lon="-1.04397">
        <ele>37</ele>
        <time>2018-06-16T15:33:31Z</time>
      </trkpt>
      <trkpt lat="47.26024" lon="-1.04399">
        <ele>36</ele>
        <time>2018-06-16T15:33:37Z</time>
      </trkpt>
      <trkpt lat="47.26016" lon="-1.04394">
        <ele>35</ele>
        <time>2018-06-16T15:33:43Z</time>
      </trkpt>
      <trkpt lat="47.26009" lon="-1.0439">
        <ele>36</ele>
        <time>2018-06-16T15:33:48Z</time>
      </trkpt>
      <trkpt lat="47.25996" lon="-1.04377">
        <ele>36</ele>
        <time>2018-06-16T15:33:54Z</time>
      </trkpt>
      <trkpt lat="47.25984" lon="-1.04371">
        <ele>36</ele>
        <time>2018-06-16T15:34:00Z</time>
      </trkpt>
      <trkpt lat="47.25982" lon="-1.04373">
        <ele>36</ele>
        <time>2018-06-16T15:34:02Z</time>
      </trkpt>
      <trkpt lat="47.2598" lon="-1.04375">
        <ele>36</ele>
        <time>2018-06-16T15:34:03Z</time>
      </trkpt>
      <trkpt lat="47.25977" lon="-1.04381">
        <ele>35</ele>
        <time>2018-06-16T15:34:05Z</time>
      </trkpt>
      <trkpt lat="47.25976" lon="-1.04382">
        <ele>35</ele>
        <time>2018-06-16T15:34:06Z</time>
      </trkpt>
      <trkpt lat="47.2596" lon="-1.04373">
        <ele>35</ele>
        <time>2018-06-16T15:34:38Z</time>
      </trkpt>
      <trkpt lat="47.25948" lon="-1.0436">
        <ele>35</ele>
        <time>2018-06-16T15:34:46Z</time>
      </trkpt>
      <trkpt lat="47.25937" lon="-1.0435">
        <ele>36</ele>
        <time>2018-06-16T15:34:53Z</time>
      </trkpt>
      <trkpt lat="47.25926" lon="-1.04333">
        <ele>36</ele>
        <time>2018-06-16T15:35:00Z</time>
      </trkpt>
      <trkpt lat="47.25922" lon="-1.0433">
        <ele>36</ele>
        <time>2018-06-16T15:35:02Z</time>
      </trkpt>
      <trkpt lat="47.25914" lon="-1.04326">
        <ele>37</ele>
        <time>2018-06-16T15:35:07Z</time>
      </trkpt>
      <trkpt lat="47.25913" lon="-1.04325">
        <ele>37</ele>
        <time>2018-06-16T15:35:08Z</time>
      </trkpt>
      <trkpt lat="47.25905" lon="-1.04322">
        <ele>39</ele>
        <time>2018-06-16T15:35:13Z</time>
      </trkpt>
      <trkpt lat="47.25898" lon="-1.04321">
        <ele>39</ele>
        <time>2018-06-16T15:35:16Z</time>
      </trkpt>
      <trkpt lat="47.25885" lon="-1.04325">
        <ele>40</ele>
        <time>2018-06-16T15:35:23Z</time>
      </trkpt>
      <trkpt lat="47.25877" lon="-1.04325">
        <ele>41</ele>
        <time>2018-06-16T15:35:29Z</time>
      </trkpt>
      <trkpt lat="47.25868" lon="-1.04328">
        <ele>42</ele>
        <time>2018-06-16T15:35:34Z</time>
      </trkpt>
      <trkpt lat="47.25862" lon="-1.0433">
        <ele>43</ele>
        <time>2018-06-16T15:35:37Z</time>
      </trkpt>
      <trkpt lat="47.25855" lon="-1.04337">
        <ele>44</ele>
        <time>2018-06-16T15:35:42Z</time>
      </trkpt>
      <trkpt lat="47.25851" lon="-1.0434">
        <ele>45</ele>
        <time>2018-06-16T15:35:45Z</time>
      </trkpt>
      <trkpt lat="47.2585" lon="-1.04341">
        <ele>46</ele>
        <time>2018-06-16T15:35:46Z</time>
      </trkpt>
      <trkpt lat="47.25844" lon="-1.04344">
        <ele>47</ele>
        <time>2018-06-16T15:35:50Z</time>
      </trkpt>
      <trkpt lat="47.25834" lon="-1.0435">
        <ele>48</ele>
        <time>2018-06-16T15:35:56Z</time>
      </trkpt>
      <trkpt lat="47.25833" lon="-1.04351">
        <ele>48</ele>
        <time>2018-06-16T15:35:57Z</time>
      </trkpt>
      <trkpt lat="47.25828" lon="-1.04353">
        <ele>49</ele>
        <time>2018-06-16T15:36:00Z</time>
      </trkpt>
      <trkpt lat="47.25822" lon="-1.04355">
        <ele>50</ele>
        <time>2018-06-16T15:36:04Z</time>
      </trkpt>
      <trkpt lat="47.2582" lon="-1.04354">
        <ele>51</ele>
        <time>2018-06-16T15:36:06Z</time>
      </trkpt>
      <trkpt lat="47.25817" lon="-1.04354">
        <ele>51</ele>
        <time>2018-06-16T15:36:08Z</time>
      </trkpt>
      <trkpt lat="47.25812" lon="-1.04352">
        <ele>52</ele>
        <time>2018-06-16T15:36:12Z</time>
      </trkpt>
      <trkpt lat="47.25808" lon="-1.04351">
        <ele>53</ele>
        <time>2018-06-16T15:36:15Z</time>
      </trkpt>
      <trkpt lat="47.25807" lon="-1.0435">
        <ele>53</ele>
        <time>2018-06-16T15:36:16Z</time>
      </trkpt>
      <trkpt lat="47.25799" lon="-1.04348">
        <ele>55</ele>
        <time>2018-06-16T15:36:21Z</time>
      </trkpt>
      <trkpt lat="47.25793" lon="-1.04346">
        <ele>56</ele>
        <time>2018-06-16T15:36:25Z</time>
      </trkpt>
      <trkpt lat="47.25783" lon="-1.04345">
        <ele>57</ele>
        <time>2018-06-16T15:36:30Z</time>
      </trkpt>
      <trkpt lat="47.25779" lon="-1.04346">
        <ele>57</ele>
        <time>2018-06-16T15:36:32Z</time>
      </trkpt>
      <trkpt lat="47.25771" lon="-1.04347">
        <ele>58</ele>
        <time>2018-06-16T15:36:36Z</time>
      </trkpt>
      <trkpt lat="47.25763" lon="-1.0435">
        <ele>59</ele>
        <time>2018-06-16T15:36:40Z</time>
      </trkpt>
      <trkpt lat="47.25753" lon="-1.04352">
        <ele>59</ele>
        <time>2018-06-16T15:36:45Z</time>
      </trkpt>
      <trkpt lat="47.25745" lon="-1.04353">
        <ele>60</ele>
        <time>2018-06-16T15:36:50Z</time>
      </trkpt>
      <trkpt lat="47.25738" lon="-1.04355">
        <ele>60</ele>
        <time>2018-06-16T15:36:54Z</time>
      </trkpt>
      <trkpt lat="47.25732" lon="-1.04357">
        <ele>60</ele>
        <time>2018-06-16T15:36:58Z</time>
      </trkpt>
      <trkpt lat="47.25716" lon="-1.04365">
        <ele>61</ele>
        <time>2018-06-16T15:37:08Z</time>
      </trkpt>
      <trkpt lat="47.25715" lon="-1.04366">
        <ele>61</ele>
        <time>2018-06-16T15:37:09Z</time>
      </trkpt>
      <trkpt lat="47.25705" lon="-1.04372">
        <ele>62</ele>
        <time>2018-06-16T15:37:15Z</time>
      </trkpt>
      <trkpt lat="47.257" lon="-1.04374">
        <ele>63</ele>
        <time>2018-06-16T15:37:18Z</time>
      </trkpt>
      <trkpt lat="47.25686" lon="-1.04381">
        <ele>63</ele>
        <time>2018-06-16T15:37:25Z</time>
      </trkpt>
      <trkpt lat="47.25682" lon="-1.04384">
        <ele>63</ele>
        <time>2018-06-16T15:37:27Z</time>
      </trkpt>
      <trkpt lat="47.25673" lon="-1.04392">
        <ele>64</ele>
        <time>2018-06-16T15:37:32Z</time>
      </trkpt>
      <trkpt lat="47.25663" lon="-1.04395">
        <ele>64</ele>
        <time>2018-06-16T15:39:27Z</time>
      </trkpt>
      <trkpt lat="47.25657" lon="-1.044">
        <ele>64</ele>
        <time>2018-06-16T15:39:31Z</time>
      </trkpt>
      <trkpt lat="47.25653" lon="-1.04401">
        <ele>64</ele>
        <time>2018-06-16T15:39:33Z</time>
      </trkpt>
      <trkpt lat="47.25644" lon="-1.04405">
        <ele>64</ele>
        <time>2018-06-16T15:39:39Z</time>
      </trkpt>
      <trkpt lat="47.25627" lon="-1.04413">
        <ele>64</ele>
        <time>2018-06-16T15:39:48Z</time>
      </trkpt>
      <trkpt lat="47.25613" lon="-1.0442">
        <ele>64</ele>
        <time>2018-06-16T15:39:56Z</time>
      </trkpt>
      <trkpt lat="47.25612" lon="-1.0442">
        <ele>64</ele>
        <time>2018-06-16T15:39:57Z</time>
      </trkpt>
      <trkpt lat="47.25602" lon="-1.04425">
        <ele>65</ele>
        <time>2018-06-16T15:40:04Z</time>
      </trkpt>
      <trkpt lat="47.25588" lon="-1.04439">
        <ele>65</ele>
        <time>2018-06-16T15:40:10Z</time>
      </trkpt>
      <trkpt lat="47.25564" lon="-1.04452">
        <ele>66</ele>
        <time>2018-06-16T15:40:18Z</time>
      </trkpt>
      <trkpt lat="47.25561" lon="-1.04454">
        <ele>66</ele>
        <time>2018-06-16T15:40:19Z</time>
      </trkpt>
      <trkpt lat="47.25533" lon="-1.04468">
        <ele>66</ele>
        <time>2018-06-16T15:40:28Z</time>
      </trkpt>
      <trkpt lat="47.25516" lon="-1.04476">
        <ele>67</ele>
        <time>2018-06-16T15:40:34Z</time>
      </trkpt>
      <trkpt lat="47.2551" lon="-1.04479">
        <ele>67</ele>
        <time>2018-06-16T15:40:36Z</time>
      </trkpt>
      <trkpt lat="47.25487" lon="-1.04492">
        <ele>68</ele>
        <time>2018-06-16T15:40:45Z</time>
      </trkpt>
      <trkpt lat="47.25484" lon="-1.04493">
        <ele>68</ele>
        <time>2018-06-16T15:40:46Z</time>
      </trkpt>
      <trkpt lat="47.25457" lon="-1.04506">
        <ele>68</ele>
        <time>2018-06-16T15:40:55Z</time>
      </trkpt>
      <trkpt lat="47.25452" lon="-1.04509">
        <ele>69</ele>
        <time>2018-06-16T15:40:57Z</time>
      </trkpt>
      <trkpt lat="47.2543" lon="-1.0452">
        <ele>70</ele>
        <time>2018-06-16T15:41:04Z</time>
      </trkpt>
      <trkpt lat="47.25427" lon="-1.04521">
        <ele>70</ele>
        <time>2018-06-16T15:41:05Z</time>
      </trkpt>
      <trkpt lat="47.25394" lon="-1.0454">
        <ele>70</ele>
        <time>2018-06-16T15:41:14Z</time>
      </trkpt>
      <trkpt lat="47.25368" lon="-1.04551">
        <ele>70</ele>
        <time>2018-06-16T15:41:20Z</time>
      </trkpt>
      <trkpt lat="47.25364" lon="-1.04552">
        <ele>70</ele>
        <time>2018-06-16T15:41:21Z</time>
      </trkpt>
      <trkpt lat="47.25337" lon="-1.04552">
        <ele>70</ele>
        <time>2018-06-16T15:41:28Z</time>
      </trkpt>
      <trkpt lat="47.25319" lon="-1.04551">
        <ele>71</ele>
        <time>2018-06-16T15:41:33Z</time>
      </trkpt>
      <trkpt lat="47.25311" lon="-1.04555">
        <ele>71</ele>
        <time>2018-06-16T15:41:36Z</time>
      </trkpt>
      <trkpt lat="47.25304" lon="-1.04567">
        <ele>71</ele>
        <time>2018-06-16T15:41:41Z</time>
      </trkpt>
      <trkpt lat="47.25293" lon="-1.0458">
        <ele>70</ele>
        <time>2018-06-16T15:41:46Z</time>
      </trkpt>
      <trkpt lat="47.25284" lon="-1.04594">
        <ele>70</ele>
        <time>2018-06-16T15:41:52Z</time>
      </trkpt>
      <trkpt lat="47.25284" lon="-1.04597">
        <ele>70</ele>
        <time>2018-06-16T15:41:53Z</time>
      </trkpt>
      <trkpt lat="47.25288" lon="-1.04601">
        <ele>70</ele>
        <time>2018-06-16T15:41:55Z</time>
      </trkpt>
      <trkpt lat="47.25296" lon="-1.04596">
        <ele>71</ele>
        <time>2018-06-16T15:41:59Z</time>
      </trkpt>
      <trkpt lat="47.25301" lon="-1.04595">
        <ele>71</ele>
        <time>2018-06-16T15:42:01Z</time>
      </trkpt>
      <trkpt lat="47.2531" lon="-1.04598">
        <ele>71</ele>
        <time>2018-06-16T15:42:05Z</time>
      </trkpt>
      <trkpt lat="47.25321" lon="-1.04614">
        <ele>70</ele>
        <time>2018-06-16T15:42:11Z</time>
      </trkpt>
      <trkpt lat="47.2533" lon="-1.04626">
        <ele>70</ele>
        <time>2018-06-16T15:42:14Z</time>
      </trkpt>
      <trkpt lat="47.25341" lon="-1.04641">
        <ele>69</ele>
        <time>2018-06-16T15:42:17Z</time>
      </trkpt>
      <trkpt lat="47.25363" lon="-1.04663">
        <ele>68</ele>
        <time>2018-06-16T15:42:21Z</time>
      </trkpt>
      <trkpt lat="47.25369" lon="-1.04669">
        <ele>68</ele>
        <time>2018-06-16T15:42:22Z</time>
      </trkpt>
      <trkpt lat="47.25383" lon="-1.0468">
        <ele>67</ele>
        <time>2018-06-16T15:42:24Z</time>
      </trkpt>
      <trkpt lat="47.25396" lon="-1.0469">
        <ele>66</ele>
        <time>2018-06-16T15:42:26Z</time>
      </trkpt>
      <trkpt lat="47.25409" lon="-1.04699">
        <ele>65</ele>
        <time>2018-06-16T15:42:28Z</time>
      </trkpt>
      <trkpt lat="47.25416" lon="-1.04703">
        <ele>64</ele>
        <time>2018-06-16T15:42:29Z</time>
      </trkpt>
      <trkpt lat="47.25438" lon="-1.04713">
        <ele>63</ele>
        <time>2018-06-16T15:42:32Z</time>
      </trkpt>
      <trkpt lat="47.25446" lon="-1.04713">
        <ele>62</ele>
        <time>2018-06-16T15:42:33Z</time>
      </trkpt>
      <trkpt lat="47.25461" lon="-1.0471">
        <ele>62</ele>
        <time>2018-06-16T15:42:35Z</time>
      </trkpt>
      <trkpt lat="47.25476" lon="-1.04704">
        <ele>61</ele>
        <time>2018-06-16T15:42:37Z</time>
      </trkpt>
      <trkpt lat="47.25483" lon="-1.047">
        <ele>60</ele>
        <time>2018-06-16T15:42:38Z</time>
      </trkpt>
      <trkpt lat="47.25502" lon="-1.04689">
        <ele>59</ele>
        <time>2018-06-16T15:42:41Z</time>
      </trkpt>
      <trkpt lat="47.25508" lon="-1.04686">
        <ele>59</ele>
        <time>2018-06-16T15:42:42Z</time>
      </trkpt>
      <trkpt lat="47.25518" lon="-1.04681">
        <ele>58</ele>
        <time>2018-06-16T15:42:44Z</time>
      </trkpt>
      <trkpt lat="47.25529" lon="-1.04676">
        <ele>57</ele>
        <time>2018-06-16T15:42:47Z</time>
      </trkpt>
      <trkpt lat="47.25535" lon="-1.04674">
        <ele>55</ele>
        <time>2018-06-16T15:42:50Z</time>
      </trkpt>
      <trkpt lat="47.25537" lon="-1.04674">
        <ele>55</ele>
        <time>2018-06-16T15:42:51Z</time>
      </trkpt>
      <trkpt lat="47.25541" lon="-1.04673">
        <ele>54</ele>
        <time>2018-06-16T15:42:55Z</time>
      </trkpt>
      <trkpt lat="47.25543" lon="-1.04671">
        <ele>54</ele>
        <time>2018-06-16T15:42:57Z</time>
      </trkpt>
      <trkpt lat="47.25546" lon="-1.04672">
        <ele>54</ele>
        <time>2018-06-16T15:43:08Z</time>
      </trkpt>
      <trkpt lat="47.25552" lon="-1.04674">
        <ele>54</ele>
        <time>2018-06-16T15:43:10Z</time>
      </trkpt>
      <trkpt lat="47.25562" lon="-1.04677">
        <ele>53</ele>
        <time>2018-06-16T15:43:13Z</time>
      </trkpt>
      <trkpt lat="47.25571" lon="-1.04679">
        <ele>52</ele>
        <time>2018-06-16T15:43:15Z</time>
      </trkpt>
      <trkpt lat="47.25575" lon="-1.0468">
        <ele>51</ele>
        <time>2018-06-16T15:43:16Z</time>
      </trkpt>
      <trkpt lat="47.25583" lon="-1.04682">
        <ele>51</ele>
        <time>2018-06-16T15:43:18Z</time>
      </trkpt>
      <trkpt lat="47.2559" lon="-1.04684">
        <ele>50</ele>
        <time>2018-06-16T15:43:20Z</time>
      </trkpt>
      <trkpt lat="47.25596" lon="-1.04686">
        <ele>49</ele>
        <time>2018-06-16T15:43:22Z</time>
      </trkpt>
      <trkpt lat="47.25598" lon="-1.04689">
        <ele>48</ele>
        <time>2018-06-16T15:43:23Z</time>
      </trkpt>
      <trkpt lat="47.25599" lon="-1.04695">
        <ele>48</ele>
        <time>2018-06-16T15:43:25Z</time>
      </trkpt>
      <trkpt lat="47.25597" lon="-1.04698">
        <ele>47</ele>
        <time>2018-06-16T15:43:26Z</time>
      </trkpt>
      <trkpt lat="47.25589" lon="-1.04708">
        <ele>46</ele>
        <time>2018-06-16T15:43:29Z</time>
      </trkpt>
      <trkpt lat="47.25581" lon="-1.0472">
        <ele>45</ele>
        <time>2018-06-16T15:43:32Z</time>
      </trkpt>
      <trkpt lat="47.25579" lon="-1.04724">
        <ele>45</ele>
        <time>2018-06-16T15:43:33Z</time>
      </trkpt>
      <trkpt lat="47.25564" lon="-1.04745">
        <ele>43</ele>
        <time>2018-06-16T15:43:38Z</time>
      </trkpt>
      <trkpt lat="47.25562" lon="-1.04749">
        <ele>43</ele>
        <time>2018-06-16T15:43:39Z</time>
      </trkpt>
      <trkpt lat="47.25556" lon="-1.04758">
        <ele>42</ele>
        <time>2018-06-16T15:43:41Z</time>
      </trkpt>
      <trkpt lat="47.25547" lon="-1.04769">
        <ele>41</ele>
        <time>2018-06-16T15:43:44Z</time>
      </trkpt>
      <trkpt lat="47.25539" lon="-1.04779">
        <ele>40</ele>
        <time>2018-06-16T15:43:47Z</time>
      </trkpt>
      <trkpt lat="47.25526" lon="-1.04788">
        <ele>39</ele>
        <time>2018-06-16T15:43:51Z</time>
      </trkpt>
      <trkpt lat="47.2552" lon="-1.04793">
        <ele>38</ele>
        <time>2018-06-16T15:43:53Z</time>
      </trkpt>
      <trkpt lat="47.25513" lon="-1.04798">
        <ele>38</ele>
        <time>2018-06-16T15:43:55Z</time>
      </trkpt>
      <trkpt lat="47.25491" lon="-1.04805">
        <ele>37</ele>
        <time>2018-06-16T15:44:00Z</time>
      </trkpt>
      <trkpt lat="47.25482" lon="-1.04807">
        <ele>36</ele>
        <time>2018-06-16T15:44:02Z</time>
      </trkpt>
      <trkpt lat="47.25455" lon="-1.04814">
        <ele>36</ele>
        <time>2018-06-16T15:44:08Z</time>
      </trkpt>
      <trkpt lat="47.2543" lon="-1.04818">
        <ele>36</ele>
        <time>2018-06-16T15:44:13Z</time>
      </trkpt>
      <trkpt lat="47.25426" lon="-1.0482">
        <ele>36</ele>
        <time>2018-06-16T15:44:14Z</time>
      </trkpt>
      <trkpt lat="47.25405" lon="-1.04825">
        <ele>36</ele>
        <time>2018-06-16T15:44:19Z</time>
      </trkpt>
      <trkpt lat="47.25384" lon="-1.0483">
        <ele>36</ele>
        <time>2018-06-16T15:44:25Z</time>
      </trkpt>
      <trkpt lat="47.25365" lon="-1.04835">
        <ele>37</ele>
        <time>2018-06-16T15:44:32Z</time>
      </trkpt>
      <trkpt lat="47.25355" lon="-1.04836">
        <ele>38</ele>
        <time>2018-06-16T15:44:38Z</time>
      </trkpt>
      <trkpt lat="47.25353" lon="-1.04836">
        <ele>38</ele>
        <time>2018-06-16T15:44:39Z</time>
      </trkpt>
      <trkpt lat="47.2534" lon="-1.04837">
        <ele>39</ele>
        <time>2018-06-16T15:45:03Z</time>
      </trkpt>
      <trkpt lat="47.25334" lon="-1.0484">
        <ele>39</ele>
        <time>2018-06-16T15:45:06Z</time>
      </trkpt>
      <trkpt lat="47.25325" lon="-1.04844">
        <ele>40</ele>
        <time>2018-06-16T15:45:11Z</time>
      </trkpt>
      <trkpt lat="47.25324" lon="-1.04845">
        <ele>40</ele>
        <time>2018-06-16T15:45:12Z</time>
      </trkpt>
      <trkpt lat="47.2532" lon="-1.04845">
        <ele>41</ele>
        <time>2018-06-16T15:45:15Z</time>
      </trkpt>
      <trkpt lat="47.25313" lon="-1.04852">
        <ele>42</ele>
        <time>2018-06-16T15:45:24Z</time>
      </trkpt>
      <trkpt lat="47.25311" lon="-1.04854">
        <ele>42</ele>
        <time>2018-06-16T15:45:25Z</time>
      </trkpt>
      <trkpt lat="47.2531" lon="-1.04859">
        <ele>43</ele>
        <time>2018-06-16T15:45:30Z</time>
      </trkpt>
      <trkpt lat="47.25292" lon="-1.04894">
        <ele>49</ele>
        <time>2018-06-16T15:47:19Z</time>
      </trkpt>
      <trkpt lat="47.25291" lon="-1.04896">
        <ele>49</ele>
        <time>2018-06-16T15:47:20Z</time>
      </trkpt>
      <trkpt lat="47.25284" lon="-1.04911">
        <ele>50</ele>
        <time>2018-06-16T15:47:26Z</time>
      </trkpt>
      <trkpt lat="47.25273" lon="-1.04925">
        <ele>50</ele>
        <time>2018-06-16T15:47:34Z</time>
      </trkpt>
      <trkpt lat="47.25268" lon="-1.04939">
        <ele>51</ele>
        <time>2018-06-16T15:47:40Z</time>
      </trkpt>
      <trkpt lat="47.25284" lon="-1.0503">
        <ele>59</ele>
        <time>2018-06-16T15:48:20Z</time>
      </trkpt>
      <trkpt lat="47.25286" lon="-1.05035">
        <ele>60</ele>
        <time>2018-06-16T15:48:22Z</time>
      </trkpt>
      <trkpt lat="47.25286" lon="-1.05042">
        <ele>60</ele>
        <time>2018-06-16T15:48:25Z</time>
      </trkpt>
      <trkpt lat="47.25286" lon="-1.05053">
        <ele>62</ele>
        <time>2018-06-16T15:48:30Z</time>
      </trkpt>
      <trkpt lat="47.25286" lon="-1.0507">
        <ele>62</ele>
        <time>2018-06-16T15:49:31Z</time>
      </trkpt>
      <trkpt lat="47.25286" lon="-1.05077">
        <ele>62</ele>
        <time>2018-06-16T15:49:33Z</time>
      </trkpt>
      <trkpt lat="47.25286" lon="-1.05082">
        <ele>62</ele>
        <time>2018-06-16T15:49:34Z</time>
      </trkpt>
      <trkpt lat="47.25282" lon="-1.05109">
        <ele>61</ele>
        <time>2018-06-16T15:49:39Z</time>
      </trkpt>
      <trkpt lat="47.25275" lon="-1.05126">
        <ele>61</ele>
        <time>2018-06-16T15:49:45Z</time>
      </trkpt>
      <trkpt lat="47.25266" lon="-1.0514">
        <ele>63</ele>
        <time>2018-06-16T15:49:53Z</time>
      </trkpt>
      <trkpt lat="47.25263" lon="-1.0515">
        <ele>64</ele>
        <time>2018-06-16T15:49:58Z</time>
      </trkpt>
      <trkpt lat="47.25263" lon="-1.05157">
        <ele>64</ele>
        <time>2018-06-16T15:50:00Z</time>
      </trkpt>
      <trkpt lat="47.25262" lon="-1.05161">
        <ele>64</ele>
        <time>2018-06-16T15:50:01Z</time>
      </trkpt>
      <trkpt lat="47.25263" lon="-1.05167">
        <ele>64</ele>
        <time>2018-06-16T15:50:03Z</time>
      </trkpt>
      <trkpt lat="47.25261" lon="-1.05184">
        <ele>64</ele>
        <time>2018-06-16T15:50:07Z</time>
      </trkpt>
      <trkpt lat="47.2526" lon="-1.0521">
        <ele>64</ele>
        <time>2018-06-16T15:50:15Z</time>
      </trkpt>
      <trkpt lat="47.25258" lon="-1.05229">
        <ele>65</ele>
        <time>2018-06-16T15:50:23Z</time>
      </trkpt>
      <trkpt lat="47.25257" lon="-1.05231">
        <ele>65</ele>
        <time>2018-06-16T15:50:24Z</time>
      </trkpt>
      <trkpt lat="47.25268" lon="-1.05272">
        <ele>69</ele>
        <time>2018-06-16T15:50:53Z</time>
      </trkpt>
      <trkpt lat="47.25271" lon="-1.05298">
        <ele>69</ele>
        <time>2018-06-16T15:51:02Z</time>
      </trkpt>
      <trkpt lat="47.25271" lon="-1.05315">
        <ele>69</ele>
        <time>2018-06-16T15:51:08Z</time>
      </trkpt>
      <trkpt lat="47.25272" lon="-1.05327">
        <ele>69</ele>
        <time>2018-06-16T15:51:11Z</time>
      </trkpt>
      <trkpt lat="47.25275" lon="-1.05348">
        <ele>70</ele>
        <time>2018-06-16T15:51:18Z</time>
      </trkpt>
      <trkpt lat="47.25275" lon="-1.05359">
        <ele>70</ele>
        <time>2018-06-16T15:51:22Z</time>
      </trkpt>
      <trkpt lat="47.25276" lon="-1.05369">
        <ele>70</ele>
        <time>2018-06-16T15:51:26Z</time>
      </trkpt>
      <trkpt lat="47.25274" lon="-1.05384">
        <ele>71</ele>
        <time>2018-06-16T15:51:32Z</time>
      </trkpt>
      <trkpt lat="47.25273" lon="-1.05386">
        <ele>71</ele>
        <time>2018-06-16T15:51:33Z</time>
      </trkpt>
      <trkpt lat="47.25271" lon="-1.05392">
        <ele>72</ele>
        <time>2018-06-16T15:51:36Z</time>
      </trkpt>
      <trkpt lat="47.2527" lon="-1.05396">
        <ele>72</ele>
        <time>2018-06-16T15:51:38Z</time>
      </trkpt>
      <trkpt lat="47.25269" lon="-1.05402">
        <ele>73</ele>
        <time>2018-06-16T15:51:41Z</time>
      </trkpt>
      <trkpt lat="47.25268" lon="-1.0541">
        <ele>73</ele>
        <time>2018-06-16T15:51:45Z</time>
      </trkpt>
      <trkpt lat="47.25267" lon="-1.05418">
        <ele>74</ele>
        <time>2018-06-16T15:51:49Z</time>
      </trkpt>
      <trkpt lat="47.25266" lon="-1.05428">
        <ele>74</ele>
        <time>2018-06-16T15:51:53Z</time>
      </trkpt>
      <trkpt lat="47.25264" lon="-1.0544">
        <ele>75</ele>
        <time>2018-06-16T15:51:58Z</time>
      </trkpt>
      <trkpt lat="47.25264" lon="-1.0545">
        <ele>76</ele>
        <time>2018-06-16T15:52:02Z</time>
      </trkpt>
      <trkpt lat="47.25261" lon="-1.05461">
        <ele>76</ele>
        <time>2018-06-16T15:52:06Z</time>
      </trkpt>
      <trkpt lat="47.25258" lon="-1.0548">
        <ele>76</ele>
        <time>2018-06-16T15:52:12Z</time>
      </trkpt>
      <trkpt lat="47.25256" lon="-1.05498">
        <ele>76</ele>
        <time>2018-06-16T15:52:18Z</time>
      </trkpt>
      <trkpt lat="47.25255" lon="-1.05526">
        <ele>76</ele>
        <time>2018-06-16T15:52:25Z</time>
      </trkpt>
      <trkpt lat="47.25254" lon="-1.05547">
        <ele>75</ele>
        <time>2018-06-16T15:52:30Z</time>
      </trkpt>
      <trkpt lat="47.25253" lon="-1.05558">
        <ele>74</ele>
        <time>2018-06-16T15:52:32Z</time>
      </trkpt>
      <trkpt lat="47.25252" lon="-1.05566">
        <ele>73</ele>
        <time>2018-06-16T15:52:34Z</time>
      </trkpt>
      <trkpt lat="47.2525" lon="-1.05575">
        <ele>73</ele>
        <time>2018-06-16T15:52:37Z</time>
      </trkpt>
      <trkpt lat="47.25246" lon="-1.05602">
        <ele>74</ele>
        <time>2018-06-16T15:52:45Z</time>
      </trkpt>
      <trkpt lat="47.25242" lon="-1.05624">
        <ele>74</ele>
        <time>2018-06-16T15:52:54Z</time>
      </trkpt>
      <trkpt lat="47.25241" lon="-1.05628">
        <ele>74</ele>
        <time>2018-06-16T15:52:56Z</time>
      </trkpt>
      <trkpt lat="47.25239" lon="-1.05641">
        <ele>75</ele>
        <time>2018-06-16T15:53:01Z</time>
      </trkpt>
      <trkpt lat="47.25238" lon="-1.05647">
        <ele>75</ele>
        <time>2018-06-16T15:53:03Z</time>
      </trkpt>
      <trkpt lat="47.25236" lon="-1.05659">
        <ele>76</ele>
        <time>2018-06-16T15:53:08Z</time>
      </trkpt>
      <trkpt lat="47.25233" lon="-1.05674">
        <ele>76</ele>
        <time>2018-06-16T15:53:13Z</time>
      </trkpt>
      <trkpt lat="47.2523" lon="-1.05682">
        <ele>77</ele>
        <time>2018-06-16T15:53:16Z</time>
      </trkpt>
      <trkpt lat="47.25221" lon="-1.05697">
        <ele>77</ele>
        <time>2018-06-16T15:53:29Z</time>
      </trkpt>
      <trkpt lat="47.25216" lon="-1.05702">
        <ele>77</ele>
        <time>2018-06-16T15:53:32Z</time>
      </trkpt>
      <trkpt lat="47.25201" lon="-1.05711">
        <ele>77</ele>
        <time>2018-06-16T15:53:41Z</time>
      </trkpt>
      <trkpt lat="47.25199" lon="-1.05711">
        <ele>77</ele>
        <time>2018-06-16T15:53:42Z</time>
      </trkpt>
      <trkpt lat="47.25189" lon="-1.05716">
        <ele>78</ele>
        <time>2018-06-16T15:53:48Z</time>
      </trkpt>
      <trkpt lat="47.2518" lon="-1.05719">
        <ele>78</ele>
        <time>2018-06-16T15:53:53Z</time>
      </trkpt>
      <trkpt lat="47.25174" lon="-1.05722">
        <ele>79</ele>
        <time>2018-06-16T15:53:56Z</time>
      </trkpt>
      <trkpt lat="47.2516" lon="-1.05734">
        <ele>79</ele>
        <time>2018-06-16T15:54:03Z</time>
      </trkpt>
      <trkpt lat="47.25146" lon="-1.05747">
        <ele>78</ele>
        <time>2018-06-16T15:54:10Z</time>
      </trkpt>
      <trkpt lat="47.25131" lon="-1.05766">
        <ele>80</ele>
        <time>2018-06-16T15:54:18Z</time>
      </trkpt>
      <trkpt lat="47.25118" lon="-1.05774">
        <ele>80</ele>
        <time>2018-06-16T15:54:26Z</time>
      </trkpt>
      <trkpt lat="47.25112" lon="-1.05776">
        <ele>81</ele>
        <time>2018-06-16T15:54:30Z</time>
      </trkpt>
      <trkpt lat="47.25106" lon="-1.05779">
        <ele>81</ele>
        <time>2018-06-16T15:54:33Z</time>
      </trkpt>
      <trkpt lat="47.25092" lon="-1.05785">
        <ele>81</ele>
        <time>2018-06-16T15:54:40Z</time>
      </trkpt>
      <trkpt lat="47.25084" lon="-1.05787">
        <ele>82</ele>
        <time>2018-06-16T15:54:44Z</time>
      </trkpt>
      <trkpt lat="47.25081" lon="-1.05789">
        <ele>82</ele>
        <time>2018-06-16T15:54:47Z</time>
      </trkpt>
      <trkpt lat="47.25071" lon="-1.05792">
        <ele>82</ele>
        <time>2018-06-16T15:54:54Z</time>
      </trkpt>
      <trkpt lat="47.25068" lon="-1.05793">
        <ele>83</ele>
        <time>2018-06-16T15:54:56Z</time>
      </trkpt>
      <trkpt lat="47.25059" lon="-1.05794">
        <ele>83</ele>
        <time>2018-06-16T15:55:02Z</time>
      </trkpt>
      <trkpt lat="47.25049" lon="-1.05795">
        <ele>84</ele>
        <time>2018-06-16T15:55:09Z</time>
      </trkpt>
      <trkpt lat="47.25047" lon="-1.05795">
        <ele>84</ele>
        <time>2018-06-16T15:55:10Z</time>
      </trkpt>
      <trkpt lat="47.25039" lon="-1.05794">
        <ele>84</ele>
        <time>2018-06-16T15:55:18Z</time>
      </trkpt>
      <trkpt lat="47.25017" lon="-1.05797">
        <ele>86</ele>
        <time>2018-06-16T15:55:38Z</time>
      </trkpt>
      <trkpt lat="47.25014" lon="-1.05797">
        <ele>86</ele>
        <time>2018-06-16T15:55:40Z</time>
      </trkpt>
      <trkpt lat="47.24971" lon="-1.05792">
        <ele>87</ele>
        <time>2018-06-16T15:56:14Z</time>
      </trkpt>
      <trkpt lat="47.2497" lon="-1.05792">
        <ele>87</ele>
        <time>2018-06-16T15:56:15Z</time>
      </trkpt>
      <trkpt lat="47.24959" lon="-1.05794">
        <ele>88</ele>
        <time>2018-06-16T15:56:23Z</time>
      </trkpt>
      <trkpt lat="47.24949" lon="-1.05806">
        <ele>88</ele>
        <time>2018-06-16T15:56:30Z</time>
      </trkpt>
      <trkpt lat="47.24942" lon="-1.05824">
        <ele>88</ele>
        <time>2018-06-16T15:56:38Z</time>
      </trkpt>
      <trkpt lat="47.24934" lon="-1.05841">
        <ele>89</ele>
        <time>2018-06-16T15:56:46Z</time>
      </trkpt>
      <trkpt lat="47.24927" lon="-1.05858">
        <ele>90</ele>
        <time>2018-06-16T15:56:53Z</time>
      </trkpt>
      <trkpt lat="47.24927" lon="-1.05861">
        <ele>90</ele>
        <time>2018-06-16T15:56:54Z</time>
      </trkpt>
      <trkpt lat="47.2492" lon="-1.05873">
        <ele>90</ele>
        <time>2018-06-16T15:57:01Z</time>
      </trkpt>
      <trkpt lat="47.24916" lon="-1.05888">
        <ele>90</ele>
        <time>2018-06-16T15:57:09Z</time>
      </trkpt>
      <trkpt lat="47.24915" lon="-1.05895">
        <ele>91</ele>
        <time>2018-06-16T15:57:12Z</time>
      </trkpt>
      <trkpt lat="47.24913" lon="-1.05904">
        <ele>91</ele>
        <time>2018-06-16T15:57:16Z</time>
      </trkpt>
      <trkpt lat="47.24909" lon="-1.05916">
        <ele>92</ele>
        <time>2018-06-16T15:57:21Z</time>
      </trkpt>
      <trkpt lat="47.24909" lon="-1.05918">
        <ele>92</ele>
        <time>2018-06-16T15:57:22Z</time>
      </trkpt>
      <trkpt lat="47.24907" lon="-1.05931">
        <ele>93</ele>
        <time>2018-06-16T15:57:28Z</time>
      </trkpt>
      <trkpt lat="47.24906" lon="-1.05935">
        <ele>93</ele>
        <time>2018-06-16T15:57:30Z</time>
      </trkpt>
      <trkpt lat="47.24902" lon="-1.05953">
        <ele>94</ele>
        <time>2018-06-16T15:57:36Z</time>
      </trkpt>
      <trkpt lat="47.24902" lon="-1.05959">
        <ele>94</ele>
        <time>2018-06-16T15:57:38Z</time>
      </trkpt>
      <trkpt lat="47.24899" lon="-1.05972">
        <ele>95</ele>
        <time>2018-06-16T15:57:43Z</time>
      </trkpt>
      <trkpt lat="47.24898" lon="-1.05975">
        <ele>95</ele>
        <time>2018-06-16T15:57:44Z</time>
      </trkpt>
      <trkpt lat="47.24894" lon="-1.05993">
        <ele>96</ele>
        <time>2018-06-16T15:57:51Z</time>
      </trkpt>
      <trkpt lat="47.24892" lon="-1.06">
        <ele>96</ele>
        <time>2018-06-16T15:57:54Z</time>
      </trkpt>
      <trkpt lat="47.24885" lon="-1.06025">
        <ele>97</ele>
        <time>2018-06-16T15:58:02Z</time>
      </trkpt>
      <trkpt lat="47.24877" lon="-1.06048">
        <ele>97</ele>
        <time>2018-06-16T15:58:09Z</time>
      </trkpt>
      <trkpt lat="47.24873" lon="-1.06075">
        <ele>97</ele>
        <time>2018-06-16T15:58:16Z</time>
      </trkpt>
      <trkpt lat="47.24867" lon="-1.06096">
        <ele>98</ele>
        <time>2018-06-16T15:58:24Z</time>
      </trkpt>
      <trkpt lat="47.24866" lon="-1.06099">
        <ele>98</ele>
        <time>2018-06-16T15:58:25Z</time>
      </trkpt>
      <trkpt lat="47.24862" lon="-1.06109">
        <ele>99</ele>
        <time>2018-06-16T15:58:29Z</time>
      </trkpt>
      <trkpt lat="47.24859" lon="-1.06114">
        <ele>99</ele>
        <time>2018-06-16T15:58:31Z</time>
      </trkpt>
      <trkpt lat="47.24853" lon="-1.06126">
        <ele>100</ele>
        <time>2018-06-16T15:58:36Z</time>
      </trkpt>
      <trkpt lat="47.24852" lon="-1.06129">
        <ele>100</ele>
        <time>2018-06-16T15:58:37Z</time>
      </trkpt>
      <trkpt lat="47.24845" lon="-1.06145">
        <ele>101</ele>
        <time>2018-06-16T15:58:43Z</time>
      </trkpt>
      <trkpt lat="47.24842" lon="-1.06152">
        <ele>102</ele>
        <time>2018-06-16T15:58:46Z</time>
      </trkpt>
      <trkpt lat="47.24837" lon="-1.06163">
        <ele>102</ele>
        <time>2018-06-16T15:58:51Z</time>
      </trkpt>
      <trkpt lat="47.24836" lon="-1.06166">
        <ele>102</ele>
        <time>2018-06-16T15:58:52Z</time>
      </trkpt>
      <trkpt lat="47.24827" lon="-1.06184">
        <ele>103</ele>
        <time>2018-06-16T15:59:00Z</time>
      </trkpt>
      <trkpt lat="47.24816" lon="-1.06201">
        <ele>103</ele>
        <time>2018-06-16T15:59:07Z</time>
      </trkpt>
      <trkpt lat="47.24808" lon="-1.0622">
        <ele>103</ele>
        <time>2018-06-16T15:59:14Z</time>
      </trkpt>
      <trkpt lat="47.24796" lon="-1.06231">
        <ele>103</ele>
        <time>2018-06-16T15:59:19Z</time>
      </trkpt>
      <trkpt lat="47.24786" lon="-1.06229">
        <ele>103</ele>
        <time>2018-06-16T15:59:24Z</time>
      </trkpt>
      <trkpt lat="47.24778" lon="-1.06227">
        <ele>103</ele>
        <time>2018-06-16T15:59:28Z</time>
      </trkpt>
      <trkpt lat="47.24773" lon="-1.06226">
        <ele>104</ele>
        <time>2018-06-16T15:59:30Z</time>
      </trkpt>
      <trkpt lat="47.24758" lon="-1.06221">
        <ele>104</ele>
        <time>2018-06-16T15:59:38Z</time>
      </trkpt>
      <trkpt lat="47.24756" lon="-1.06221">
        <ele>104</ele>
        <time>2018-06-16T15:59:39Z</time>
      </trkpt>
      <trkpt lat="47.24742" lon="-1.06211">
        <ele>105</ele>
        <time>2018-06-16T15:59:45Z</time>
      </trkpt>
      <trkpt lat="47.2473" lon="-1.06196">
        <ele>106</ele>
        <time>2018-06-16T15:59:51Z</time>
      </trkpt>
      <trkpt lat="47.24724" lon="-1.06188">
        <ele>106</ele>
        <time>2018-06-16T15:59:54Z</time>
      </trkpt>
      <trkpt lat="47.24712" lon="-1.06173">
        <ele>106</ele>
        <time>2018-06-16T16:00:00Z</time>
      </trkpt>
      <trkpt lat="47.24704" lon="-1.06165">
        <ele>106</ele>
        <time>2018-06-16T16:00:06Z</time>
      </trkpt>
      <trkpt lat="47.24701" lon="-1.06164">
        <ele>104</ele>
        <time>2018-06-16T16:09:32Z</time>
      </trkpt>
      <trkpt lat="47.24699" lon="-1.06164">
        <ele>104</ele>
        <time>2018-06-16T16:09:33Z</time>
      </trkpt>
      <trkpt lat="47.24689" lon="-1.06172">
        <ele>104</ele>
        <time>2018-06-16T16:09:39Z</time>
      </trkpt>
      <trkpt lat="47.2468" lon="-1.06185">
        <ele>105</ele>
        <time>2018-06-16T16:09:45Z</time>
      </trkpt>
      <trkpt lat="47.24667" lon="-1.062">
        <ele>105</ele>
        <time>2018-06-16T16:09:51Z</time>
      </trkpt>
      <trkpt lat="47.24665" lon="-1.06202">
        <ele>105</ele>
        <time>2018-06-16T16:09:52Z</time>
      </trkpt>
      <trkpt lat="47.24647" lon="-1.06225">
        <ele>106</ele>
        <time>2018-06-16T16:09:59Z</time>
      </trkpt>
      <trkpt lat="47.24645" lon="-1.06228">
        <ele>106</ele>
        <time>2018-06-16T16:10:00Z</time>
      </trkpt>
      <trkpt lat="47.24633" lon="-1.06247">
        <ele>107</ele>
        <time>2018-06-16T16:10:05Z</time>
      </trkpt>
      <trkpt lat="47.24619" lon="-1.06267">
        <ele>107</ele>
        <time>2018-06-16T16:10:11Z</time>
      </trkpt>
      <trkpt lat="47.2461" lon="-1.06289">
        <ele>107</ele>
        <time>2018-06-16T16:10:16Z</time>
      </trkpt>
      <trkpt lat="47.24608" lon="-1.06322">
        <ele>107</ele>
        <time>2018-06-16T16:10:22Z</time>
      </trkpt>
      <trkpt lat="47.24607" lon="-1.06356">
        <ele>107</ele>
        <time>2018-06-16T16:10:28Z</time>
      </trkpt>
      <trkpt lat="47.24609" lon="-1.06389">
        <ele>107</ele>
        <time>2018-06-16T16:10:35Z</time>
      </trkpt>
      <trkpt lat="47.2461" lon="-1.06413">
        <ele>107</ele>
        <time>2018-06-16T16:10:42Z</time>
      </trkpt>
      <trkpt lat="47.24611" lon="-1.06434">
        <ele>107</ele>
        <time>2018-06-16T16:10:48Z</time>
      </trkpt>
      <trkpt lat="47.2461" lon="-1.06447">
        <ele>107</ele>
        <time>2018-06-16T16:10:54Z</time>
      </trkpt>
      <trkpt lat="47.2461" lon="-1.06451">
        <ele>107</ele>
        <time>2018-06-16T16:10:56Z</time>
      </trkpt>
      <trkpt lat="47.24614" lon="-1.06454">
        <ele>107</ele>
        <time>2018-06-16T16:10:58Z</time>
      </trkpt>
      <trkpt lat="47.24631" lon="-1.06469">
        <ele>107</ele>
        <time>2018-06-16T16:11:05Z</time>
      </trkpt>
      <trkpt lat="47.24644" lon="-1.06491">
        <ele>107</ele>
        <time>2018-06-16T16:11:11Z</time>
      </trkpt>
      <trkpt lat="47.24648" lon="-1.0652">
        <ele>107</ele>
        <time>2018-06-16T16:11:17Z</time>
      </trkpt>
      <trkpt lat="47.24642" lon="-1.06536">
        <ele>107</ele>
        <time>2018-06-16T16:11:22Z</time>
      </trkpt>
      <trkpt lat="47.24632" lon="-1.06555">
        <ele>107</ele>
        <time>2018-06-16T16:11:28Z</time>
      </trkpt>
      <trkpt lat="47.24624" lon="-1.06577">
        <ele>107</ele>
        <time>2018-06-16T16:11:35Z</time>
      </trkpt>
      <trkpt lat="47.24614" lon="-1.06603">
        <ele>108</ele>
        <time>2018-06-16T16:11:42Z</time>
      </trkpt>
      <trkpt lat="47.24598" lon="-1.06632">
        <ele>108</ele>
        <time>2018-06-16T16:11:50Z</time>
      </trkpt>
      <trkpt lat="47.24584" lon="-1.06658">
        <ele>108</ele>
        <time>2018-06-16T16:11:57Z</time>
      </trkpt>
      <trkpt lat="47.24568" lon="-1.06691">
        <ele>107</ele>
        <time>2018-06-16T16:12:05Z</time>
      </trkpt>
      <trkpt lat="47.24548" lon="-1.06726">
        <ele>107</ele>
        <time>2018-06-16T16:12:13Z</time>
      </trkpt>
      <trkpt lat="47.24536" lon="-1.06748">
        <ele>108</ele>
        <time>2018-06-16T16:12:19Z</time>
      </trkpt>
      <trkpt lat="47.24523" lon="-1.06776">
        <ele>108</ele>
        <time>2018-06-16T16:12:26Z</time>
      </trkpt>
      <trkpt lat="47.2451" lon="-1.06803">
        <ele>108</ele>
        <time>2018-06-16T16:12:33Z</time>
      </trkpt>
      <trkpt lat="47.24501" lon="-1.06822">
        <ele>108</ele>
        <time>2018-06-16T16:12:38Z</time>
      </trkpt>
      <trkpt lat="47.245" lon="-1.06826">
        <ele>108</ele>
        <time>2018-06-16T16:12:39Z</time>
      </trkpt>
      <trkpt lat="47.24487" lon="-1.06853">
        <ele>109</ele>
        <time>2018-06-16T16:12:45Z</time>
      </trkpt>
      <trkpt lat="47.24477" lon="-1.06876">
        <ele>109</ele>
        <time>2018-06-16T16:12:51Z</time>
      </trkpt>
      <trkpt lat="47.24469" lon="-1.06889">
        <ele>109</ele>
        <time>2018-06-16T16:12:55Z</time>
      </trkpt>
      <trkpt lat="47.2446" lon="-1.069">
        <ele>109</ele>
        <time>2018-06-16T16:12:59Z</time>
      </trkpt>
      <trkpt lat="47.24457" lon="-1.06905">
        <ele>109</ele>
        <time>2018-06-16T16:13:01Z</time>
      </trkpt>
      <trkpt lat="47.24451" lon="-1.06917">
        <ele>109</ele>
        <time>2018-06-16T16:13:05Z</time>
      </trkpt>
      <trkpt lat="47.24441" lon="-1.06938">
        <ele>110</ele>
        <time>2018-06-16T16:13:12Z</time>
      </trkpt>
      <trkpt lat="47.24434" lon="-1.06953">
        <ele>110</ele>
        <time>2018-06-16T16:13:18Z</time>
      </trkpt>
      <trkpt lat="47.24433" lon="-1.06956">
        <ele>110</ele>
        <time>2018-06-16T16:13:19Z</time>
      </trkpt>
      <trkpt lat="47.24427" lon="-1.06969">
        <ele>110</ele>
        <time>2018-06-16T16:13:23Z</time>
      </trkpt>
      <trkpt lat="47.24422" lon="-1.0698">
        <ele>110</ele>
        <time>2018-06-16T16:13:26Z</time>
      </trkpt>
      <trkpt lat="47.24413" lon="-1.06995">
        <ele>110</ele>
        <time>2018-06-16T16:13:33Z</time>
      </trkpt>
      <trkpt lat="47.24404" lon="-1.07013">
        <ele>111</ele>
        <time>2018-06-16T16:13:41Z</time>
      </trkpt>
      <trkpt lat="47.24394" lon="-1.07031">
        <ele>111</ele>
        <time>2018-06-16T16:13:49Z</time>
      </trkpt>
      <trkpt lat="47.24384" lon="-1.0705">
        <ele>111</ele>
        <time>2018-06-16T16:13:58Z</time>
      </trkpt>
      <trkpt lat="47.2438" lon="-1.07056">
        <ele>111</ele>
        <time>2018-06-16T16:14:02Z</time>
      </trkpt>
      <trkpt lat="47.24378" lon="-1.0706">
        <ele>112</ele>
        <time>2018-06-16T16:14:04Z</time>
      </trkpt>
      <trkpt lat="47.24367" lon="-1.07078">
        <ele>112</ele>
        <time>2018-06-16T16:14:11Z</time>
      </trkpt>
      <trkpt lat="47.24352" lon="-1.07105">
        <ele>112</ele>
        <time>2018-06-16T16:14:20Z</time>
      </trkpt>
      <trkpt lat="47.24336" lon="-1.07129">
        <ele>112</ele>
        <time>2018-06-16T16:14:28Z</time>
      </trkpt>
      <trkpt lat="47.24325" lon="-1.07149">
        <ele>112</ele>
        <time>2018-06-16T16:14:34Z</time>
      </trkpt>
      <trkpt lat="47.24319" lon="-1.07158">
        <ele>112</ele>
        <time>2018-06-16T16:14:37Z</time>
      </trkpt>
      <trkpt lat="47.24314" lon="-1.07168">
        <ele>112</ele>
        <time>2018-06-16T16:14:40Z</time>
      </trkpt>
      <trkpt lat="47.24302" lon="-1.0719">
        <ele>112</ele>
        <time>2018-06-16T16:14:47Z</time>
      </trkpt>
      <trkpt lat="47.24287" lon="-1.07217">
        <ele>111</ele>
        <time>2018-06-16T16:14:55Z</time>
      </trkpt>
      <trkpt lat="47.24272" lon="-1.07239">
        <ele>111</ele>
        <time>2018-06-16T16:15:02Z</time>
      </trkpt>
      <trkpt lat="47.24261" lon="-1.07254">
        <ele>110</ele>
        <time>2018-06-16T16:15:08Z</time>
      </trkpt>
      <trkpt lat="47.24264" lon="-1.07264">
        <ele>110</ele>
        <time>2018-06-16T16:15:12Z</time>
      </trkpt>
      <trkpt lat="47.24268" lon="-1.07277">
        <ele>110</ele>
        <time>2018-06-16T16:15:18Z</time>
      </trkpt>
      <trkpt lat="47.24269" lon="-1.07286">
        <ele>110</ele>
        <time>2018-06-16T16:15:22Z</time>
      </trkpt>
      <trkpt lat="47.24269" lon="-1.07291">
        <ele>110</ele>
        <time>2018-06-16T16:15:24Z</time>
      </trkpt>
      <trkpt lat="47.24264" lon="-1.07302">
        <ele>110</ele>
        <time>2018-06-16T16:15:39Z</time>
      </trkpt>
      <trkpt lat="47.2426" lon="-1.07306">
        <ele>110</ele>
        <time>2018-06-16T16:15:41Z</time>
      </trkpt>
      <trkpt lat="47.24245" lon="-1.07329">
        <ele>110</ele>
        <time>2018-06-16T16:15:47Z</time>
      </trkpt>
      <trkpt lat="47.24231" lon="-1.07352">
        <ele>109</ele>
        <time>2018-06-16T16:15:52Z</time>
      </trkpt>
      <trkpt lat="47.24223" lon="-1.07362">
        <ele>109</ele>
        <time>2018-06-16T16:15:54Z</time>
      </trkpt>
      <trkpt lat="47.24197" lon="-1.07401">
        <ele>108</ele>
        <time>2018-06-16T16:16:01Z</time>
      </trkpt>
      <trkpt lat="47.24193" lon="-1.07406">
        <ele>108</ele>
        <time>2018-06-16T16:16:02Z</time>
      </trkpt>
      <trkpt lat="47.24175" lon="-1.07429">
        <ele>107</ele>
        <time>2018-06-16T16:16:07Z</time>
      </trkpt>
      <trkpt lat="47.24155" lon="-1.07454">
        <ele>107</ele>
        <time>2018-06-16T16:16:14Z</time>
      </trkpt>
      <trkpt lat="47.24138" lon="-1.07484">
        <ele>106</ele>
        <time>2018-06-16T16:16:21Z</time>
      </trkpt>
      <trkpt lat="47.24128" lon="-1.07509">
        <ele>106</ele>
        <time>2018-06-16T16:16:27Z</time>
      </trkpt>
      <trkpt lat="47.24117" lon="-1.07537">
        <ele>106</ele>
        <time>2018-06-16T16:16:33Z</time>
      </trkpt>
      <trkpt lat="47.24113" lon="-1.07564">
        <ele>107</ele>
        <time>2018-06-16T16:16:38Z</time>
      </trkpt>
      <trkpt lat="47.24102" lon="-1.07595">
        <ele>107</ele>
        <time>2018-06-16T16:16:44Z</time>
      </trkpt>
      <trkpt lat="47.24087" lon="-1.07639">
        <ele>107</ele>
        <time>2018-06-16T16:16:52Z</time>
      </trkpt>
      <trkpt lat="47.24081" lon="-1.07666">
        <ele>107</ele>
        <time>2018-06-16T16:16:56Z</time>
      </trkpt>
      <trkpt lat="47.24076" lon="-1.07681">
        <ele>107</ele>
        <time>2018-06-16T16:16:58Z</time>
      </trkpt>
      <trkpt lat="47.24058" lon="-1.07735">
        <ele>107</ele>
        <time>2018-06-16T16:17:05Z</time>
      </trkpt>
      <trkpt lat="47.2405" lon="-1.07763">
        <ele>107</ele>
        <time>2018-06-16T16:17:09Z</time>
      </trkpt>
      <trkpt lat="47.24049" lon="-1.07777">
        <ele>107</ele>
        <time>2018-06-16T16:17:11Z</time>
      </trkpt>
      <trkpt lat="47.2405" lon="-1.07792">
        <ele>106</ele>
        <time>2018-06-16T16:17:13Z</time>
      </trkpt>
      <trkpt lat="47.24049" lon="-1.07807">
        <ele>106</ele>
        <time>2018-06-16T16:17:15Z</time>
      </trkpt>
      <trkpt lat="47.24049" lon="-1.07847">
        <ele>105</ele>
        <time>2018-06-16T16:17:21Z</time>
      </trkpt>
      <trkpt lat="47.24051" lon="-1.07859">
        <ele>105</ele>
        <time>2018-06-16T16:17:23Z</time>
      </trkpt>
      <trkpt lat="47.24053" lon="-1.07871">
        <ele>105</ele>
        <time>2018-06-16T16:17:25Z</time>
      </trkpt>
      <trkpt lat="47.24055" lon="-1.07877">
        <ele>104</ele>
        <time>2018-06-16T16:17:26Z</time>
      </trkpt>
      <trkpt lat="47.24064" lon="-1.079">
        <ele>104</ele>
        <time>2018-06-16T16:17:29Z</time>
      </trkpt>
      <trkpt lat="47.24066" lon="-1.0791">
        <ele>104</ele>
        <time>2018-06-16T16:17:30Z</time>
      </trkpt>
      <trkpt lat="47.24077" lon="-1.0794">
        <ele>103</ele>
        <time>2018-06-16T16:17:34Z</time>
      </trkpt>
      <trkpt lat="47.24079" lon="-1.07946">
        <ele>103</ele>
        <time>2018-06-16T16:17:35Z</time>
      </trkpt>
      <trkpt lat="47.24081" lon="-1.07954">
        <ele>102</ele>
        <time>2018-06-16T16:17:36Z</time>
      </trkpt>
      <trkpt lat="47.24085" lon="-1.07969">
        <ele>102</ele>
        <time>2018-06-16T16:17:38Z</time>
      </trkpt>
      <trkpt lat="47.24087" lon="-1.07975">
        <ele>101</ele>
        <time>2018-06-16T16:17:39Z</time>
      </trkpt>
      <trkpt lat="47.24091" lon="-1.0799">
        <ele>100</ele>
        <time>2018-06-16T16:17:42Z</time>
      </trkpt>
      <trkpt lat="47.24092" lon="-1.07999">
        <ele>100</ele>
        <time>2018-06-16T16:17:44Z</time>
      </trkpt>
      <trkpt lat="47.24092" lon="-1.08005">
        <ele>99</ele>
        <time>2018-06-16T16:17:46Z</time>
      </trkpt>
      <trkpt lat="47.24092" lon="-1.08013">
        <ele>99</ele>
        <time>2018-06-16T16:17:48Z</time>
      </trkpt>
      <trkpt lat="47.24094" lon="-1.08026">
        <ele>99</ele>
        <time>2018-06-16T16:17:51Z</time>
      </trkpt>
      <trkpt lat="47.24101" lon="-1.08057">
        <ele>101</ele>
        <time>2018-06-16T16:17:56Z</time>
      </trkpt>
      <trkpt lat="47.24103" lon="-1.08076">
        <ele>101</ele>
        <time>2018-06-16T16:17:59Z</time>
      </trkpt>
      <trkpt lat="47.24105" lon="-1.08095">
        <ele>102</ele>
        <time>2018-06-16T16:18:02Z</time>
      </trkpt>
      <trkpt lat="47.24108" lon="-1.08114">
        <ele>102</ele>
        <time>2018-06-16T16:18:05Z</time>
      </trkpt>
      <trkpt lat="47.24111" lon="-1.08136">
        <ele>103</ele>
        <time>2018-06-16T16:18:09Z</time>
      </trkpt>
      <trkpt lat="47.24108" lon="-1.08169">
        <ele>103</ele>
        <time>2018-06-16T16:18:16Z</time>
      </trkpt>
      <trkpt lat="47.24099" lon="-1.08184">
        <ele>103</ele>
        <time>2018-06-16T16:18:23Z</time>
      </trkpt>
      <trkpt lat="47.24083" lon="-1.08198">
        <ele>103</ele>
        <time>2018-06-16T16:18:30Z</time>
      </trkpt>
      <trkpt lat="47.24061" lon="-1.08214">
        <ele>103</ele>
        <time>2018-06-16T16:18:37Z</time>
      </trkpt>
      <trkpt lat="47.24039" lon="-1.08224">
        <ele>102</ele>
        <time>2018-06-16T16:18:44Z</time>
      </trkpt>
      <trkpt lat="47.24023" lon="-1.08232">
        <ele>101</ele>
        <time>2018-06-16T16:18:48Z</time>
      </trkpt>
      <trkpt lat="47.24011" lon="-1.08237">
        <ele>101</ele>
        <time>2018-06-16T16:18:51Z</time>
      </trkpt>
      <trkpt lat="47.24006" lon="-1.08241">
        <ele>100</ele>
        <time>2018-06-16T16:18:53Z</time>
      </trkpt>
      <trkpt lat="47.23992" lon="-1.08251">
        <ele>99</ele>
        <time>2018-06-16T16:18:58Z</time>
      </trkpt>
      <trkpt lat="47.23989" lon="-1.08252">
        <ele>99</ele>
        <time>2018-06-16T16:18:59Z</time>
      </trkpt>
      <trkpt lat="47.23976" lon="-1.0826">
        <ele>98</ele>
        <time>2018-06-16T16:19:03Z</time>
      </trkpt>
      <trkpt lat="47.23967" lon="-1.08267">
        <ele>97</ele>
        <time>2018-06-16T16:19:05Z</time>
      </trkpt>
      <trkpt lat="47.23958" lon="-1.08273">
        <ele>97</ele>
        <time>2018-06-16T16:19:07Z</time>
      </trkpt>
      <trkpt lat="47.23947" lon="-1.08278">
        <ele>96</ele>
        <time>2018-06-16T16:19:10Z</time>
      </trkpt>
      <trkpt lat="47.23943" lon="-1.08279">
        <ele>95</ele>
        <time>2018-06-16T16:19:11Z</time>
      </trkpt>
      <trkpt lat="47.23931" lon="-1.08281">
        <ele>95</ele>
        <time>2018-06-16T16:19:14Z</time>
      </trkpt>
      <trkpt lat="47.23927" lon="-1.08281">
        <ele>94</ele>
        <time>2018-06-16T16:19:16Z</time>
      </trkpt>
      <trkpt lat="47.2388" lon="-1.08273">
        <ele>92</ele>
        <time>2018-06-16T16:22:39Z</time>
      </trkpt>
      <trkpt lat="47.23875" lon="-1.08275">
        <ele>92</ele>
        <time>2018-06-16T16:22:41Z</time>
      </trkpt>
      <trkpt lat="47.23858" lon="-1.08285">
        <ele>93</ele>
        <time>2018-06-16T16:22:47Z</time>
      </trkpt>
      <trkpt lat="47.23857" lon="-1.08287">
        <ele>94</ele>
        <time>2018-06-16T16:22:48Z</time>
      </trkpt>
      <trkpt lat="47.23854" lon="-1.08289">
        <ele>94</ele>
        <time>2018-06-16T16:22:50Z</time>
      </trkpt>
      <trkpt lat="47.23851" lon="-1.08292">
        <ele>94</ele>
        <time>2018-06-16T16:22:52Z</time>
      </trkpt>
      <trkpt lat="47.2385" lon="-1.08292">
        <ele>95</ele>
        <time>2018-06-16T16:22:53Z</time>
      </trkpt>
      <trkpt lat="47.2384" lon="-1.08303">
        <ele>96</ele>
        <time>2018-06-16T16:23:00Z</time>
      </trkpt>
      <trkpt lat="47.23829" lon="-1.08315">
        <ele>97</ele>
        <time>2018-06-16T16:23:06Z</time>
      </trkpt>
      <trkpt lat="47.23827" lon="-1.08317">
        <ele>97</ele>
        <time>2018-06-16T16:23:07Z</time>
      </trkpt>
      <trkpt lat="47.23813" lon="-1.08327">
        <ele>98</ele>
        <time>2018-06-16T16:23:13Z</time>
      </trkpt>
      <trkpt lat="47.23811" lon="-1.08328">
        <ele>98</ele>
        <time>2018-06-16T16:23:14Z</time>
      </trkpt>
      <trkpt lat="47.23797" lon="-1.08344">
        <ele>98</ele>
        <time>2018-06-16T16:23:21Z</time>
      </trkpt>
      <trkpt lat="47.23786" lon="-1.08364">
        <ele>99</ele>
        <time>2018-06-16T16:23:27Z</time>
      </trkpt>
      <trkpt lat="47.2377" lon="-1.08386">
        <ele>100</ele>
        <time>2018-06-16T16:23:33Z</time>
      </trkpt>
      <trkpt lat="47.23766" lon="-1.0839">
        <ele>100</ele>
        <time>2018-06-16T16:23:35Z</time>
      </trkpt>
      <trkpt lat="47.23757" lon="-1.08403">
        <ele>100</ele>
        <time>2018-06-16T16:23:40Z</time>
      </trkpt>
      <trkpt lat="47.23746" lon="-1.08415">
        <ele>101</ele>
        <time>2018-06-16T16:23:46Z</time>
      </trkpt>
      <trkpt lat="47.23741" lon="-1.0842">
        <ele>101</ele>
        <time>2018-06-16T16:23:48Z</time>
      </trkpt>
      <trkpt lat="47.2373" lon="-1.08429">
        <ele>101</ele>
        <time>2018-06-16T16:23:52Z</time>
      </trkpt>
      <trkpt lat="47.23707" lon="-1.0845">
        <ele>102</ele>
        <time>2018-06-16T16:24:00Z</time>
      </trkpt>
      <trkpt lat="47.23693" lon="-1.08472">
        <ele>103</ele>
        <time>2018-06-16T16:24:07Z</time>
      </trkpt>
      <trkpt lat="47.23687" lon="-1.0848">
        <ele>103</ele>
        <time>2018-06-16T16:24:12Z</time>
      </trkpt>
      <trkpt lat="47.23666" lon="-1.08493">
        <ele>103</ele>
        <time>2018-06-16T16:25:21Z</time>
      </trkpt>
      <trkpt lat="47.2366" lon="-1.08486">
        <ele>103</ele>
        <time>2018-06-16T16:25:24Z</time>
      </trkpt>
      <trkpt lat="47.23643" lon="-1.08468">
        <ele>103</ele>
        <time>2018-06-16T16:25:31Z</time>
      </trkpt>
      <trkpt lat="47.23633" lon="-1.08455">
        <ele>102</ele>
        <time>2018-06-16T16:25:47Z</time>
      </trkpt>
      <trkpt lat="47.23622" lon="-1.08447">
        <ele>102</ele>
        <time>2018-06-16T16:25:52Z</time>
      </trkpt>
      <trkpt lat="47.236" lon="-1.08431">
        <ele>102</ele>
        <time>2018-06-16T16:25:58Z</time>
      </trkpt>
      <trkpt lat="47.23592" lon="-1.08426">
        <ele>102</ele>
        <time>2018-06-16T16:26:00Z</time>
      </trkpt>
      <trkpt lat="47.23576" lon="-1.08416">
        <ele>102</ele>
        <time>2018-06-16T16:26:04Z</time>
      </trkpt>
      <trkpt lat="47.23549" lon="-1.08396">
        <ele>101</ele>
        <time>2018-06-16T16:26:11Z</time>
      </trkpt>
      <trkpt lat="47.23541" lon="-1.08389">
        <ele>101</ele>
        <time>2018-06-16T16:26:13Z</time>
      </trkpt>
      <trkpt lat="47.23518" lon="-1.08372">
        <ele>100</ele>
        <time>2018-06-16T16:26:18Z</time>
      </trkpt>
      <trkpt lat="47.2351" lon="-1.08366">
        <ele>100</ele>
        <time>2018-06-16T16:26:20Z</time>
      </trkpt>
      <trkpt lat="47.23487" lon="-1.08349">
        <ele>99</ele>
        <time>2018-06-16T16:26:26Z</time>
      </trkpt>
      <trkpt lat="47.23478" lon="-1.08343">
        <ele>99</ele>
        <time>2018-06-16T16:26:28Z</time>
      </trkpt>
      <trkpt lat="47.23459" lon="-1.08331">
        <ele>98</ele>
        <time>2018-06-16T16:26:33Z</time>
      </trkpt>
      <trkpt lat="47.23434" lon="-1.08316">
        <ele>96</ele>
        <time>2018-06-16T16:26:39Z</time>
      </trkpt>
      <trkpt lat="47.2343" lon="-1.08313">
        <ele>96</ele>
        <time>2018-06-16T16:26:40Z</time>
      </trkpt>
      <trkpt lat="47.23417" lon="-1.08303">
        <ele>95</ele>
        <time>2018-06-16T16:26:43Z</time>
      </trkpt>
      <trkpt lat="47.23403" lon="-1.08292">
        <ele>94</ele>
        <time>2018-06-16T16:26:46Z</time>
      </trkpt>
      <trkpt lat="47.23399" lon="-1.08289">
        <ele>94</ele>
        <time>2018-06-16T16:26:47Z</time>
      </trkpt>
      <trkpt lat="47.23387" lon="-1.0828">
        <ele>93</ele>
        <time>2018-06-16T16:26:50Z</time>
      </trkpt>
      <trkpt lat="47.23378" lon="-1.08272">
        <ele>92</ele>
        <time>2018-06-16T16:26:53Z</time>
      </trkpt>
      <trkpt lat="47.23376" lon="-1.08269">
        <ele>92</ele>
        <time>2018-06-16T16:26:54Z</time>
      </trkpt>
      <trkpt lat="47.23364" lon="-1.0826">
        <ele>92</ele>
        <time>2018-06-16T16:26:59Z</time>
      </trkpt>
      <trkpt lat="47.23363" lon="-1.08261">
        <ele>92</ele>
        <time>2018-06-16T16:27:10Z</time>
      </trkpt>
      <trkpt lat="47.23375" lon="-1.0827">
        <ele>92</ele>
        <time>2018-06-16T16:27:16Z</time>
      </trkpt>
      <trkpt lat="47.23398" lon="-1.08284">
        <ele>92</ele>
        <time>2018-06-16T16:27:23Z</time>
      </trkpt>
      <trkpt lat="47.23417" lon="-1.08297">
        <ele>93</ele>
        <time>2018-06-16T16:27:29Z</time>
      </trkpt>
      <trkpt lat="47.23422" lon="-1.08301">
        <ele>93</ele>
        <time>2018-06-16T16:27:31Z</time>
      </trkpt>
      <trkpt lat="47.23434" lon="-1.08311">
        <ele>94</ele>
        <time>2018-06-16T16:27:36Z</time>
      </trkpt>
      <trkpt lat="47.23443" lon="-1.08318">
        <ele>95</ele>
        <time>2018-06-16T16:27:40Z</time>
      </trkpt>
      <trkpt lat="47.2345" lon="-1.08323">
        <ele>96</ele>
        <time>2018-06-16T16:27:43Z</time>
      </trkpt>
      <trkpt lat="47.23453" lon="-1.08324">
        <ele>96</ele>
        <time>2018-06-16T16:27:44Z</time>
      </trkpt>
      <trkpt lat="47.23471" lon="-1.08337">
        <ele>97</ele>
        <time>2018-06-16T16:27:50Z</time>
      </trkpt>
      <trkpt lat="47.23489" lon="-1.08349">
        <ele>98</ele>
        <time>2018-06-16T16:27:56Z</time>
      </trkpt>
      <trkpt lat="47.23498" lon="-1.08356">
        <ele>98</ele>
        <time>2018-06-16T16:27:59Z</time>
      </trkpt>
      <trkpt lat="47.23511" lon="-1.08366">
        <ele>99</ele>
        <time>2018-06-16T16:28:03Z</time>
      </trkpt>
      <trkpt lat="47.23527" lon="-1.08378">
        <ele>100</ele>
        <time>2018-06-16T16:28:08Z</time>
      </trkpt>
      <trkpt lat="47.23534" lon="-1.08383">
        <ele>100</ele>
        <time>2018-06-16T16:28:10Z</time>
      </trkpt>
      <trkpt lat="47.23556" lon="-1.084">
        <ele>100</ele>
        <time>2018-06-16T16:28:16Z</time>
      </trkpt>
      <trkpt lat="47.2356" lon="-1.08403">
        <ele>101</ele>
        <time>2018-06-16T16:28:17Z</time>
      </trkpt>
      <trkpt lat="47.23586" lon="-1.08423">
        <ele>101</ele>
        <time>2018-06-16T16:28:24Z</time>
      </trkpt>
      <trkpt lat="47.23601" lon="-1.08433">
        <ele>102</ele>
        <time>2018-06-16T16:28:29Z</time>
      </trkpt>
      <trkpt lat="47.23604" lon="-1.08435">
        <ele>102</ele>
        <time>2018-06-16T16:28:30Z</time>
      </trkpt>
      <trkpt lat="47.23619" lon="-1.08443">
        <ele>102</ele>
        <time>2018-06-16T16:28:36Z</time>
      </trkpt>
      <trkpt lat="47.23626" lon="-1.08449">
        <ele>102</ele>
        <time>2018-06-16T16:28:40Z</time>
      </trkpt>
      <trkpt lat="47.23629" lon="-1.08452">
        <ele>102</ele>
        <time>2018-06-16T16:28:42Z</time>
      </trkpt>
      <trkpt lat="47.23637" lon="-1.08466">
        <ele>103</ele>
        <time>2018-06-16T16:28:49Z</time>
      </trkpt>
      <trkpt lat="47.23639" lon="-1.08468">
        <ele>103</ele>
        <time>2018-06-16T16:28:50Z</time>
      </trkpt>
      <trkpt lat="47.23647" lon="-1.08479">
        <ele>103</ele>
        <time>2018-06-16T16:28:55Z</time>
      </trkpt>
      <trkpt lat="47.23659" lon="-1.08496">
        <ele>103</ele>
        <time>2018-06-16T16:29:03Z</time>
      </trkpt>
      <trkpt lat="47.23667" lon="-1.08515">
        <ele>103</ele>
        <time>2018-06-16T16:30:30Z</time>
      </trkpt>
      <trkpt lat="47.23673" lon="-1.08522">
        <ele>103</ele>
        <time>2018-06-16T16:30:33Z</time>
      </trkpt>
      <trkpt lat="47.23692" lon="-1.08545">
        <ele>103</ele>
        <time>2018-06-16T16:30:40Z</time>
      </trkpt>
      <trkpt lat="47.2371" lon="-1.0857">
        <ele>103</ele>
        <time>2018-06-16T16:30:46Z</time>
      </trkpt>
      <trkpt lat="47.23734" lon="-1.08603">
        <ele>103</ele>
        <time>2018-06-16T16:30:54Z</time>
      </trkpt>
      <trkpt lat="47.23752" lon="-1.08628">
        <ele>102</ele>
        <time>2018-06-16T16:31:00Z</time>
      </trkpt>
      <trkpt lat="47.23778" lon="-1.08664">
        <ele>102</ele>
        <time>2018-06-16T16:31:08Z</time>
      </trkpt>
      <trkpt lat="47.23781" lon="-1.08668">
        <ele>102</ele>
        <time>2018-06-16T16:31:09Z</time>
      </trkpt>
      <trkpt lat="47.23792" lon="-1.08685">
        <ele>101</ele>
        <time>2018-06-16T16:31:14Z</time>
      </trkpt>
      <trkpt lat="47.23809" lon="-1.08706">
        <ele>101</ele>
        <time>2018-06-16T16:31:20Z</time>
      </trkpt>
      <trkpt lat="47.23827" lon="-1.08732">
        <ele>102</ele>
        <time>2018-06-16T16:31:25Z</time>
      </trkpt>
      <trkpt lat="47.23831" lon="-1.08736">
        <ele>102</ele>
        <time>2018-06-16T16:31:26Z</time>
      </trkpt>
      <trkpt lat="47.23848" lon="-1.08757">
        <ele>102</ele>
        <time>2018-06-16T16:31:31Z</time>
      </trkpt>
      <trkpt lat="47.23855" lon="-1.08766">
        <ele>103</ele>
        <time>2018-06-16T16:31:33Z</time>
      </trkpt>
      <trkpt lat="47.23866" lon="-1.08782">
        <ele>103</ele>
        <time>2018-06-16T16:31:38Z</time>
      </trkpt>
      <trkpt lat="47.23871" lon="-1.08791">
        <ele>104</ele>
        <time>2018-06-16T16:31:40Z</time>
      </trkpt>
      <trkpt lat="47.23884" lon="-1.08813">
        <ele>105</ele>
        <time>2018-06-16T16:31:45Z</time>
      </trkpt>
      <trkpt lat="47.23889" lon="-1.08822">
        <ele>105</ele>
        <time>2018-06-16T16:31:47Z</time>
      </trkpt>
      <trkpt lat="47.23905" lon="-1.08843">
        <ele>105</ele>
        <time>2018-06-16T16:31:52Z</time>
      </trkpt>
      <trkpt lat="47.2392" lon="-1.08865">
        <ele>105</ele>
        <time>2018-06-16T16:31:58Z</time>
      </trkpt>
      <trkpt lat="47.23937" lon="-1.08889">
        <ele>106</ele>
        <time>2018-06-16T16:32:04Z</time>
      </trkpt>
      <trkpt lat="47.23951" lon="-1.08911">
        <ele>106</ele>
        <time>2018-06-16T16:32:19Z</time>
      </trkpt>
      <trkpt lat="47.23957" lon="-1.08917">
        <ele>106</ele>
        <time>2018-06-16T16:32:22Z</time>
      </trkpt>
      <trkpt lat="47.2397" lon="-1.08933">
        <ele>106</ele>
        <time>2018-06-16T16:32:27Z</time>
      </trkpt>
      <trkpt lat="47.23987" lon="-1.08962">
        <ele>106</ele>
        <time>2018-06-16T16:32:33Z</time>
      </trkpt>
      <trkpt lat="47.24014" lon="-1.09002">
        <ele>105</ele>
        <time>2018-06-16T16:32:41Z</time>
      </trkpt>
      <trkpt lat="47.24017" lon="-1.09007">
        <ele>105</ele>
        <time>2018-06-16T16:32:42Z</time>
      </trkpt>
      <trkpt lat="47.24036" lon="-1.09036">
        <ele>104</ele>
        <time>2018-06-16T16:32:48Z</time>
      </trkpt>
      <trkpt lat="47.2405" lon="-1.09055">
        <ele>104</ele>
        <time>2018-06-16T16:32:52Z</time>
      </trkpt>
      <trkpt lat="47.24059" lon="-1.0907">
        <ele>103</ele>
        <time>2018-06-16T16:32:55Z</time>
      </trkpt>
      <trkpt lat="47.24079" lon="-1.09097">
        <ele>103</ele>
        <time>2018-06-16T16:33:01Z</time>
      </trkpt>
      <trkpt lat="47.24099" lon="-1.09123">
        <ele>103</ele>
        <time>2018-06-16T16:33:07Z</time>
      </trkpt>
      <trkpt lat="47.24118" lon="-1.0915">
        <ele>103</ele>
        <time>2018-06-16T16:33:13Z</time>
      </trkpt>
      <trkpt lat="47.24135" lon="-1.0918">
        <ele>104</ele>
        <time>2018-06-16T16:33:20Z</time>
      </trkpt>
      <trkpt lat="47.24152" lon="-1.09206">
        <ele>105</ele>
        <time>2018-06-16T16:33:27Z</time>
      </trkpt>
      <trkpt lat="47.24156" lon="-1.09213">
        <ele>105</ele>
        <time>2018-06-16T16:33:29Z</time>
      </trkpt>
      <trkpt lat="47.24167" lon="-1.09227">
        <ele>106</ele>
        <time>2018-06-16T16:33:33Z</time>
      </trkpt>
      <trkpt lat="47.24177" lon="-1.09241">
        <ele>106</ele>
        <time>2018-06-16T16:33:36Z</time>
      </trkpt>
      <trkpt lat="47.24194" lon="-1.09266">
        <ele>107</ele>
        <time>2018-06-16T16:33:42Z</time>
      </trkpt>
      <trkpt lat="47.24207" lon="-1.09285">
        <ele>107</ele>
        <time>2018-06-16T16:33:47Z</time>
      </trkpt>
      <trkpt lat="47.24209" lon="-1.09289">
        <ele>107</ele>
        <time>2018-06-16T16:33:48Z</time>
      </trkpt>
      <trkpt lat="47.2422" lon="-1.09309">
        <ele>108</ele>
        <time>2018-06-16T16:33:53Z</time>
      </trkpt>
      <trkpt lat="47.24224" lon="-1.09317">
        <ele>108</ele>
        <time>2018-06-16T16:33:55Z</time>
      </trkpt>
      <trkpt lat="47.24239" lon="-1.09338">
        <ele>109</ele>
        <time>2018-06-16T16:34:01Z</time>
      </trkpt>
      <trkpt lat="47.24247" lon="-1.09347">
        <ele>109</ele>
        <time>2018-06-16T16:34:04Z</time>
      </trkpt>
      <trkpt lat="47.24254" lon="-1.09352">
        <ele>110</ele>
        <time>2018-06-16T16:34:07Z</time>
      </trkpt>
      <trkpt lat="47.24265" lon="-1.09369">
        <ele>110</ele>
        <time>2018-06-16T16:34:50Z</time>
      </trkpt>
      <trkpt lat="47.24257" lon="-1.09357">
        <ele>110</ele>
        <time>2018-06-16T16:34:55Z</time>
      </trkpt>
      <trkpt lat="47.24242" lon="-1.09333">
        <ele>109</ele>
        <time>2018-06-16T16:35:01Z</time>
      </trkpt>
      <trkpt lat="47.24221" lon="-1.09303">
        <ele>109</ele>
        <time>2018-06-16T16:35:07Z</time>
      </trkpt>
      <trkpt lat="47.242" lon="-1.09276">
        <ele>108</ele>
        <time>2018-06-16T16:35:12Z</time>
      </trkpt>
      <trkpt lat="47.24192" lon="-1.09265">
        <ele>108</ele>
        <time>2018-06-16T16:35:14Z</time>
      </trkpt>
      <trkpt lat="47.24169" lon="-1.09232">
        <ele>107</ele>
        <time>2018-06-16T16:35:20Z</time>
      </trkpt>
      <trkpt lat="47.24151" lon="-1.09206">
        <ele>106</ele>
        <time>2018-06-16T16:35:25Z</time>
      </trkpt>
      <trkpt lat="47.24144" lon="-1.09195">
        <ele>105</ele>
        <time>2018-06-16T16:35:27Z</time>
      </trkpt>
      <trkpt lat="47.24128" lon="-1.09169">
        <ele>105</ele>
        <time>2018-06-16T16:35:31Z</time>
      </trkpt>
      <trkpt lat="47.24124" lon="-1.09163">
        <ele>105</ele>
        <time>2018-06-16T16:35:32Z</time>
      </trkpt>
      <trkpt lat="47.24115" lon="-1.09152">
        <ele>104</ele>
        <time>2018-06-16T16:35:34Z</time>
      </trkpt>
      <trkpt lat="47.24102" lon="-1.09134">
        <ele>104</ele>
        <time>2018-06-16T16:35:37Z</time>
      </trkpt>
      <trkpt lat="47.24086" lon="-1.09108">
        <ele>103</ele>
        <time>2018-06-16T16:35:42Z</time>
      </trkpt>
      <trkpt lat="47.24082" lon="-1.09103">
        <ele>103</ele>
        <time>2018-06-16T16:35:43Z</time>
      </trkpt>
      <trkpt lat="47.24065" lon="-1.09081">
        <ele>103</ele>
        <time>2018-06-16T16:35:48Z</time>
      </trkpt>
      <trkpt lat="47.24041" lon="-1.09049">
        <ele>103</ele>
        <time>2018-06-16T16:35:55Z</time>
      </trkpt>
      <trkpt lat="47.24022" lon="-1.09024">
        <ele>104</ele>
        <time>2018-06-16T16:36:01Z</time>
      </trkpt>
      <trkpt lat="47.24011" lon="-1.09008">
        <ele>105</ele>
        <time>2018-06-16T16:36:05Z</time>
      </trkpt>
      <trkpt lat="47.23999" lon="-1.08992">
        <ele>105</ele>
        <time>2018-06-16T16:36:09Z</time>
      </trkpt>
      <trkpt lat="47.23982" lon="-1.0897">
        <ele>105</ele>
        <time>2018-06-16T16:36:15Z</time>
      </trkpt>
      <trkpt lat="47.23969" lon="-1.08957">
        <ele>106</ele>
        <time>2018-06-16T16:36:19Z</time>
      </trkpt>
      <trkpt lat="47.2396" lon="-1.08945">
        <ele>106</ele>
        <time>2018-06-16T16:36:22Z</time>
      </trkpt>
      <trkpt lat="47.23943" lon="-1.08917">
        <ele>106</ele>
        <time>2018-06-16T16:36:28Z</time>
      </trkpt>
      <trkpt lat="47.23926" lon="-1.08892">
        <ele>106</ele>
        <time>2018-06-16T16:36:34Z</time>
      </trkpt>
      <trkpt lat="47.23903" lon="-1.08856">
        <ele>106</ele>
        <time>2018-06-16T16:36:41Z</time>
      </trkpt>
      <trkpt lat="47.23877" lon="-1.08812">
        <ele>105</ele>
        <time>2018-06-16T16:36:49Z</time>
      </trkpt>
      <trkpt lat="47.23861" lon="-1.08784">
        <ele>104</ele>
        <time>2018-06-16T16:36:54Z</time>
      </trkpt>
      <trkpt lat="47.2385" lon="-1.08772">
        <ele>104</ele>
        <time>2018-06-16T16:36:56Z</time>
      </trkpt>
      <trkpt lat="47.23837" lon="-1.08753">
        <ele>103</ele>
        <time>2018-06-16T16:36:59Z</time>
      </trkpt>
      <trkpt lat="47.23823" lon="-1.08736">
        <ele>103</ele>
        <time>2018-06-16T16:37:02Z</time>
      </trkpt>
      <trkpt lat="47.23814" lon="-1.08726">
        <ele>102</ele>
        <time>2018-06-16T16:37:04Z</time>
      </trkpt>
      <trkpt lat="47.23806" lon="-1.08714">
        <ele>102</ele>
        <time>2018-06-16T16:37:07Z</time>
      </trkpt>
      <trkpt lat="47.23793" lon="-1.08693">
        <ele>101</ele>
        <time>2018-06-16T16:37:12Z</time>
      </trkpt>
      <trkpt lat="47.23785" lon="-1.08685">
        <ele>101</ele>
        <time>2018-06-16T16:37:14Z</time>
      </trkpt>
      <trkpt lat="47.2377" lon="-1.08667">
        <ele>101</ele>
        <time>2018-06-16T16:37:18Z</time>
      </trkpt>
      <trkpt lat="47.23766" lon="-1.08662">
        <ele>101</ele>
        <time>2018-06-16T16:37:19Z</time>
      </trkpt>
      <trkpt lat="47.23749" lon="-1.08636">
        <ele>102</ele>
        <time>2018-06-16T16:37:25Z</time>
      </trkpt>
      <trkpt lat="47.23736" lon="-1.08615">
        <ele>102</ele>
        <time>2018-06-16T16:37:30Z</time>
      </trkpt>
      <trkpt lat="47.23732" lon="-1.0861">
        <ele>102</ele>
        <time>2018-06-16T16:37:31Z</time>
      </trkpt>
      <trkpt lat="47.23708" lon="-1.08573">
        <ele>103</ele>
        <time>2018-06-16T16:37:38Z</time>
      </trkpt>
      <trkpt lat="47.23683" lon="-1.08538">
        <ele>103</ele>
        <time>2018-06-16T16:37:46Z</time>
      </trkpt>
      <trkpt lat="47.23661" lon="-1.08508">
        <ele>103</ele>
        <time>2018-06-16T16:37:54Z</time>
      </trkpt>
      <trkpt lat="47.23647" lon="-1.0849">
        <ele>103</ele>
        <time>2018-06-16T16:38:00Z</time>
      </trkpt>
      <trkpt lat="47.23644" lon="-1.08478">
        <ele>102</ele>
        <time>2018-06-16T16:38:18Z</time>
      </trkpt>
      <trkpt lat="47.23648" lon="-1.08481">
        <ele>102</ele>
        <time>2018-06-16T16:38:21Z</time>
      </trkpt>
      <trkpt lat="47.23657" lon="-1.08493">
        <ele>103</ele>
        <time>2018-06-16T16:38:28Z</time>
      </trkpt>
      <trkpt lat="47.23671" lon="-1.08513">
        <ele>103</ele>
        <time>2018-06-16T16:38:35Z</time>
      </trkpt>
      <trkpt lat="47.23699" lon="-1.08558">
        <ele>103</ele>
        <time>2018-06-16T16:38:44Z</time>
      </trkpt>
      <trkpt lat="47.23729" lon="-1.08599">
        <ele>103</ele>
        <time>2018-06-16T16:38:51Z</time>
      </trkpt>
      <trkpt lat="47.23759" lon="-1.08641">
        <ele>102</ele>
        <time>2018-06-16T16:38:58Z</time>
      </trkpt>
      <trkpt lat="47.23782" lon="-1.08675">
        <ele>101</ele>
        <time>2018-06-16T16:39:04Z</time>
      </trkpt>
      <trkpt lat="47.23786" lon="-1.0868">
        <ele>101</ele>
        <time>2018-06-16T16:39:05Z</time>
      </trkpt>
      <trkpt lat="47.23808" lon="-1.08716">
        <ele>101</ele>
        <time>2018-06-16T16:39:12Z</time>
      </trkpt>
      <trkpt lat="47.2383" lon="-1.0875">
        <ele>102</ele>
        <time>2018-06-16T16:39:18Z</time>
      </trkpt>
      <trkpt lat="47.23839" lon="-1.08764">
        <ele>103</ele>
        <time>2018-06-16T16:39:21Z</time>
      </trkpt>
      <trkpt lat="47.23852" lon="-1.08782">
        <ele>103</ele>
        <time>2018-06-16T16:39:25Z</time>
      </trkpt>
      <trkpt lat="47.23859" lon="-1.08792">
        <ele>104</ele>
        <time>2018-06-16T16:39:28Z</time>
      </trkpt>
      <trkpt lat="47.23866" lon="-1.08804">
        <ele>104</ele>
        <time>2018-06-16T16:39:31Z</time>
      </trkpt>
      <trkpt lat="47.2388" lon="-1.08823">
        <ele>105</ele>
        <time>2018-06-16T16:39:36Z</time>
      </trkpt>
      <trkpt lat="47.23883" lon="-1.08827">
        <ele>105</ele>
        <time>2018-06-16T16:39:37Z</time>
      </trkpt>
      <trkpt lat="47.23905" lon="-1.08856">
        <ele>105</ele>
        <time>2018-06-16T16:39:44Z</time>
      </trkpt>
      <trkpt lat="47.23923" lon="-1.08883">
        <ele>106</ele>
        <time>2018-06-16T16:39:51Z</time>
      </trkpt>
      <trkpt lat="47.23931" lon="-1.08895">
        <ele>106</ele>
        <time>2018-06-16T16:39:54Z</time>
      </trkpt>
      <trkpt lat="47.2394" lon="-1.0891">
        <ele>106</ele>
        <time>2018-06-16T16:39:57Z</time>
      </trkpt>
      <trkpt lat="47.23966" lon="-1.08949">
        <ele>106</ele>
        <time>2018-06-16T16:40:04Z</time>
      </trkpt>
      <trkpt lat="47.23993" lon="-1.08984">
        <ele>105</ele>
        <time>2018-06-16T16:40:10Z</time>
      </trkpt>
      <trkpt lat="47.24006" lon="-1.09">
        <ele>105</ele>
        <time>2018-06-16T16:40:13Z</time>
      </trkpt>
      <trkpt lat="47.24021" lon="-1.09019">
        <ele>105</ele>
        <time>2018-06-16T16:40:16Z</time>
      </trkpt>
      <trkpt lat="47.24052" lon="-1.0906">
        <ele>104</ele>
        <time>2018-06-16T16:40:23Z</time>
      </trkpt>
      <trkpt lat="47.24081" lon="-1.091">
        <ele>103</ele>
        <time>2018-06-16T16:40:30Z</time>
      </trkpt>
      <trkpt lat="47.24108" lon="-1.09137">
        <ele>103</ele>
        <time>2018-06-16T16:40:37Z</time>
      </trkpt>
      <trkpt lat="47.24127" lon="-1.09163">
        <ele>103</ele>
        <time>2018-06-16T16:40:42Z</time>
      </trkpt>
      <trkpt lat="47.2413" lon="-1.09169">
        <ele>103</ele>
        <time>2018-06-16T16:40:43Z</time>
      </trkpt>
      <trkpt lat="47.24142" lon="-1.09189">
        <ele>104</ele>
        <time>2018-06-16T16:40:48Z</time>
      </trkpt>
      <trkpt lat="47.24156" lon="-1.09209">
        <ele>105</ele>
        <time>2018-06-16T16:40:54Z</time>
      </trkpt>
      <trkpt lat="47.24158" lon="-1.09213">
        <ele>105</ele>
        <time>2018-06-16T16:40:55Z</time>
      </trkpt>
      <trkpt lat="47.24171" lon="-1.09232">
        <ele>106</ele>
        <time>2018-06-16T16:41:00Z</time>
      </trkpt>
      <trkpt lat="47.24173" lon="-1.09236">
        <ele>106</ele>
        <time>2018-06-16T16:41:01Z</time>
      </trkpt>
      <trkpt lat="47.24193" lon="-1.09266">
        <ele>106</ele>
        <time>2018-06-16T16:41:07Z</time>
      </trkpt>
      <trkpt lat="47.24207" lon="-1.09285">
        <ele>107</ele>
        <time>2018-06-16T16:41:12Z</time>
      </trkpt>
      <trkpt lat="47.2421" lon="-1.0929">
        <ele>107</ele>
        <time>2018-06-16T16:41:13Z</time>
      </trkpt>
      <trkpt lat="47.24223" lon="-1.09309">
        <ele>107</ele>
        <time>2018-06-16T16:41:17Z</time>
      </trkpt>
      <trkpt lat="47.24229" lon="-1.09318">
        <ele>108</ele>
        <time>2018-06-16T16:41:20Z</time>
      </trkpt>
      <trkpt lat="47.24233" lon="-1.09325">
        <ele>108</ele>
        <time>2018-06-16T16:41:22Z</time>
      </trkpt>
      <trkpt lat="47.24245" lon="-1.09343">
        <ele>109</ele>
        <time>2018-06-16T16:41:28Z</time>
      </trkpt>
      <trkpt lat="47.24249" lon="-1.09347">
        <ele>109</ele>
        <time>2018-06-16T16:41:30Z</time>
      </trkpt>
      <trkpt lat="47.24265" lon="-1.09362">
        <ele>110</ele>
        <time>2018-06-16T16:41:37Z</time>
      </trkpt>
      <trkpt lat="47.24276" lon="-1.09382">
        <ele>110</ele>
        <time>2018-06-16T16:41:44Z</time>
      </trkpt>
      <trkpt lat="47.24282" lon="-1.09395">
        <ele>110</ele>
        <time>2018-06-16T16:41:48Z</time>
      </trkpt>
      <trkpt lat="47.24288" lon="-1.09405">
        <ele>110</ele>
        <time>2018-06-16T16:41:52Z</time>
      </trkpt>
      <trkpt lat="47.24294" lon="-1.0941">
        <ele>111</ele>
        <time>2018-06-16T16:41:59Z</time>
      </trkpt>
      <trkpt lat="47.24295" lon="-1.09412">
        <ele>111</ele>
        <time>2018-06-16T16:42:00Z</time>
      </trkpt>
      <trkpt lat="47.24308" lon="-1.09431">
        <ele>111</ele>
        <time>2018-06-16T16:42:05Z</time>
      </trkpt>
      <trkpt lat="47.24322" lon="-1.09458">
        <ele>111</ele>
        <time>2018-06-16T16:42:09Z</time>
      </trkpt>
      <trkpt lat="47.24327" lon="-1.09465">
        <ele>111</ele>
        <time>2018-06-16T16:42:10Z</time>
      </trkpt>
      <trkpt lat="47.24357" lon="-1.09515">
        <ele>112</ele>
        <time>2018-06-16T16:42:18Z</time>
      </trkpt>
      <trkpt lat="47.24361" lon="-1.0952">
        <ele>112</ele>
        <time>2018-06-16T16:42:19Z</time>
      </trkpt>
      <trkpt lat="47.24376" lon="-1.09543">
        <ele>112</ele>
        <time>2018-06-16T16:42:24Z</time>
      </trkpt>
      <trkpt lat="47.24397" lon="-1.09576">
        <ele>113</ele>
        <time>2018-06-16T16:42:30Z</time>
      </trkpt>
      <trkpt lat="47.24421" lon="-1.09615">
        <ele>113</ele>
        <time>2018-06-16T16:42:37Z</time>
      </trkpt>
      <trkpt lat="47.24448" lon="-1.09661">
        <ele>113</ele>
        <time>2018-06-16T16:42:45Z</time>
      </trkpt>
      <trkpt lat="47.24472" lon="-1.097">
        <ele>113</ele>
        <time>2018-06-16T16:42:51Z</time>
      </trkpt>
      <trkpt lat="47.24505" lon="-1.09747">
        <ele>111</ele>
        <time>2018-06-16T16:42:58Z</time>
      </trkpt>
      <trkpt lat="47.24514" lon="-1.0976">
        <ele>111</ele>
        <time>2018-06-16T16:43:00Z</time>
      </trkpt>
      <trkpt lat="47.24546" lon="-1.09808">
        <ele>111</ele>
        <time>2018-06-16T16:43:07Z</time>
      </trkpt>
      <trkpt lat="47.24564" lon="-1.09832">
        <ele>110</ele>
        <time>2018-06-16T16:43:11Z</time>
      </trkpt>
      <trkpt lat="47.24571" lon="-1.09843">
        <ele>110</ele>
        <time>2018-06-16T16:43:13Z</time>
      </trkpt>
      <trkpt lat="47.24574" lon="-1.09848">
        <ele>110</ele>
        <time>2018-06-16T16:43:14Z</time>
      </trkpt>
      <trkpt lat="47.24594" lon="-1.09879">
        <ele>109</ele>
        <time>2018-06-16T16:43:19Z</time>
      </trkpt>
      <trkpt lat="47.24606" lon="-1.09898">
        <ele>109</ele>
        <time>2018-06-16T16:43:22Z</time>
      </trkpt>
      <trkpt lat="47.24617" lon="-1.09916">
        <ele>108</ele>
        <time>2018-06-16T16:43:25Z</time>
      </trkpt>
      <trkpt lat="47.24624" lon="-1.09926">
        <ele>108</ele>
        <time>2018-06-16T16:43:27Z</time>
      </trkpt>
      <trkpt lat="47.24629" lon="-1.09933">
        <ele>108</ele>
        <time>2018-06-16T16:43:28Z</time>
      </trkpt>
      <trkpt lat="47.24637" lon="-1.09945">
        <ele>108</ele>
        <time>2018-06-16T16:43:30Z</time>
      </trkpt>
      <trkpt lat="47.24662" lon="-1.09983">
        <ele>108</ele>
        <time>2018-06-16T16:43:36Z</time>
      </trkpt>
      <trkpt lat="47.24675" lon="-1.10013">
        <ele>107</ele>
        <time>2018-06-16T16:43:41Z</time>
      </trkpt>
      <trkpt lat="47.24689" lon="-1.10039">
        <ele>107</ele>
        <time>2018-06-16T16:43:46Z</time>
      </trkpt>
      <trkpt lat="47.247" lon="-1.10057">
        <ele>107</ele>
        <time>2018-06-16T16:43:51Z</time>
      </trkpt>
      <trkpt lat="47.24719" lon="-1.10086">
        <ele>106</ele>
        <time>2018-06-16T16:43:58Z</time>
      </trkpt>
      <trkpt lat="47.24721" lon="-1.1009">
        <ele>106</ele>
        <time>2018-06-16T16:43:59Z</time>
      </trkpt>
      <trkpt lat="47.24737" lon="-1.10122">
        <ele>105</ele>
        <time>2018-06-16T16:44:05Z</time>
      </trkpt>
      <trkpt lat="47.24756" lon="-1.10142">
        <ele>105</ele>
        <time>2018-06-16T16:44:09Z</time>
      </trkpt>
      <trkpt lat="47.24761" lon="-1.10146">
        <ele>105</ele>
        <time>2018-06-16T16:44:10Z</time>
      </trkpt>
      <trkpt lat="47.24773" lon="-1.10152">
        <ele>105</ele>
        <time>2018-06-16T16:44:12Z</time>
      </trkpt>
      <trkpt lat="47.24791" lon="-1.10161">
        <ele>104</ele>
        <time>2018-06-16T16:44:16Z</time>
      </trkpt>
      <trkpt lat="47.24805" lon="-1.10171">
        <ele>104</ele>
        <time>2018-06-16T16:44:20Z</time>
      </trkpt>
      <trkpt lat="47.24831" lon="-1.10188">
        <ele>104</ele>
        <time>2018-06-16T16:44:26Z</time>
      </trkpt>
      <trkpt lat="47.24859" lon="-1.10206">
        <ele>104</ele>
        <time>2018-06-16T16:44:32Z</time>
      </trkpt>
      <trkpt lat="47.24863" lon="-1.10208">
        <ele>104</ele>
        <time>2018-06-16T16:44:33Z</time>
      </trkpt>
      <trkpt lat="47.24875" lon="-1.10217">
        <ele>105</ele>
        <time>2018-06-16T16:44:37Z</time>
      </trkpt>
      <trkpt lat="47.24887" lon="-1.1023">
        <ele>105</ele>
        <time>2018-06-16T16:44:43Z</time>
      </trkpt>
      <trkpt lat="47.24903" lon="-1.10242">
        <ele>105</ele>
        <time>2018-06-16T16:44:48Z</time>
      </trkpt>
      <trkpt lat="47.24921" lon="-1.10252">
        <ele>106</ele>
        <time>2018-06-16T16:44:54Z</time>
      </trkpt>
      <trkpt lat="47.24926" lon="-1.10253">
        <ele>106</ele>
        <time>2018-06-16T16:44:57Z</time>
      </trkpt>
      <trkpt lat="47.24928" lon="-1.10245">
        <ele>106</ele>
        <time>2018-06-16T16:45:00Z</time>
      </trkpt>
      <trkpt lat="47.24928" lon="-1.10242">
        <ele>106</ele>
        <time>2018-06-16T16:45:01Z</time>
      </trkpt>
      <trkpt lat="47.2493" lon="-1.10225">
        <ele>107</ele>
        <time>2018-06-16T16:45:06Z</time>
      </trkpt>
      <trkpt lat="47.24931" lon="-1.1022">
        <ele>107</ele>
        <time>2018-06-16T16:45:07Z</time>
      </trkpt>
      <trkpt lat="47.24933" lon="-1.10199">
        <ele>107</ele>
        <time>2018-06-16T16:45:12Z</time>
      </trkpt>
      <trkpt lat="47.24935" lon="-1.10172">
        <ele>107</ele>
        <time>2018-06-16T16:45:19Z</time>
      </trkpt>
      <trkpt lat="47.24944" lon="-1.10143">
        <ele>108</ele>
        <time>2018-06-16T16:45:26Z</time>
      </trkpt>
      <trkpt lat="47.24946" lon="-1.10138">
        <ele>108</ele>
        <time>2018-06-16T16:45:27Z</time>
      </trkpt>
      <trkpt lat="47.24951" lon="-1.1011">
        <ele>108</ele>
        <time>2018-06-16T16:45:32Z</time>
      </trkpt>
      <trkpt lat="47.24954" lon="-1.10093">
        <ele>109</ele>
        <time>2018-06-16T16:45:36Z</time>
      </trkpt>
      <trkpt lat="47.24955" lon="-1.10087">
        <ele>109</ele>
        <time>2018-06-16T16:45:38Z</time>
      </trkpt>
      <trkpt lat="47.24955" lon="-1.10084">
        <ele>109</ele>
        <time>2018-06-16T16:45:39Z</time>
      </trkpt>
      <trkpt lat="47.24955" lon="-1.10077">
        <ele>109</ele>
        <time>2018-06-16T16:45:41Z</time>
      </trkpt>
      <trkpt lat="47.24957" lon="-1.10067">
        <ele>109</ele>
        <time>2018-06-16T16:45:43Z</time>
      </trkpt>
      <trkpt lat="47.2496" lon="-1.10048">
        <ele>109</ele>
        <time>2018-06-16T16:45:48Z</time>
      </trkpt>
      <trkpt lat="47.2496" lon="-1.10027">
        <ele>109</ele>
        <time>2018-06-16T16:45:53Z</time>
      </trkpt>
      <trkpt lat="47.24961" lon="-1.10008">
        <ele>109</ele>
        <time>2018-06-16T16:45:58Z</time>
      </trkpt>
      <trkpt lat="47.24963" lon="-1.09985">
        <ele>109</ele>
        <time>2018-06-16T16:46:05Z</time>
      </trkpt>
      <trkpt lat="47.24965" lon="-1.09964">
        <ele>109</ele>
        <time>2018-06-16T16:46:11Z</time>
      </trkpt>
      <trkpt lat="47.24968" lon="-1.09935">
        <ele>109</ele>
        <time>2018-06-16T16:46:16Z</time>
      </trkpt>
      <trkpt lat="47.24976" lon="-1.09895">
        <ele>109</ele>
        <time>2018-06-16T16:46:23Z</time>
      </trkpt>
      <trkpt lat="47.24982" lon="-1.09864">
        <ele>109</ele>
        <time>2018-06-16T16:46:29Z</time>
      </trkpt>
      <trkpt lat="47.24988" lon="-1.09838">
        <ele>109</ele>
        <time>2018-06-16T16:46:35Z</time>
      </trkpt>
      <trkpt lat="47.24991" lon="-1.09817">
        <ele>110</ele>
        <time>2018-06-16T16:46:41Z</time>
      </trkpt>
      <trkpt lat="47.25003" lon="-1.09786">
        <ele>110</ele>
        <time>2018-06-16T16:46:48Z</time>
      </trkpt>
      <trkpt lat="47.25012" lon="-1.09758">
        <ele>110</ele>
        <time>2018-06-16T16:46:54Z</time>
      </trkpt>
      <trkpt lat="47.25015" lon="-1.09747">
        <ele>110</ele>
        <time>2018-06-16T16:47:00Z</time>
      </trkpt>
      <trkpt lat="47.25018" lon="-1.09746">
        <ele>110</ele>
        <time>2018-06-16T16:47:02Z</time>
      </trkpt>
      <trkpt lat="47.25024" lon="-1.09748">
        <ele>110</ele>
        <time>2018-06-16T16:47:06Z</time>
      </trkpt>
      <trkpt lat="47.25035" lon="-1.09752">
        <ele>110</ele>
        <time>2018-06-16T16:47:09Z</time>
      </trkpt>
      <trkpt lat="47.2504" lon="-1.09754">
        <ele>110</ele>
        <time>2018-06-16T16:47:10Z</time>
      </trkpt>
      <trkpt lat="47.25072" lon="-1.09763">
        <ele>110</ele>
        <time>2018-06-16T16:47:17Z</time>
      </trkpt>
      <trkpt lat="47.25107" lon="-1.09774">
        <ele>109</ele>
        <time>2018-06-16T16:47:26Z</time>
      </trkpt>
      <trkpt lat="47.25118" lon="-1.0978">
        <ele>109</ele>
        <time>2018-06-16T16:47:29Z</time>
      </trkpt>
      <trkpt lat="47.25123" lon="-1.09788">
        <ele>109</ele>
        <time>2018-06-16T16:47:31Z</time>
      </trkpt>
      <trkpt lat="47.25125" lon="-1.09802">
        <ele>109</ele>
        <time>2018-06-16T16:47:35Z</time>
      </trkpt>
      <trkpt lat="47.25125" lon="-1.09814">
        <ele>108</ele>
        <time>2018-06-16T16:49:19Z</time>
      </trkpt>
      <trkpt lat="47.25125" lon="-1.09817">
        <ele>108</ele>
        <time>2018-06-16T16:49:20Z</time>
      </trkpt>
      <trkpt lat="47.25124" lon="-1.09836">
        <ele>108</ele>
        <time>2018-06-16T16:49:25Z</time>
      </trkpt>
      <trkpt lat="47.25122" lon="-1.09877">
        <ele>109</ele>
        <time>2018-06-16T16:49:32Z</time>
      </trkpt>
      <trkpt lat="47.25119" lon="-1.09913">
        <ele>109</ele>
        <time>2018-06-16T16:49:38Z</time>
      </trkpt>
      <trkpt lat="47.25118" lon="-1.09938">
        <ele>109</ele>
        <time>2018-06-16T16:49:42Z</time>
      </trkpt>
      <trkpt lat="47.25118" lon="-1.09955">
        <ele>109</ele>
        <time>2018-06-16T16:49:45Z</time>
      </trkpt>
      <trkpt lat="47.25117" lon="-1.09995">
        <ele>110</ele>
        <time>2018-06-16T16:49:52Z</time>
      </trkpt>
      <trkpt lat="47.25119" lon="-1.10045">
        <ele>110</ele>
        <time>2018-06-16T16:50:00Z</time>
      </trkpt>
      <trkpt lat="47.2512" lon="-1.10058">
        <ele>110</ele>
        <time>2018-06-16T16:50:02Z</time>
      </trkpt>
      <trkpt lat="47.25121" lon="-1.10099">
        <ele>110</ele>
        <time>2018-06-16T16:50:08Z</time>
      </trkpt>
      <trkpt lat="47.25122" lon="-1.10169">
        <ele>109</ele>
        <time>2018-06-16T16:50:17Z</time>
      </trkpt>
      <trkpt lat="47.25127" lon="-1.10208">
        <ele>109</ele>
        <time>2018-06-16T16:50:22Z</time>
      </trkpt>
      <trkpt lat="47.2513" lon="-1.10231">
        <ele>109</ele>
        <time>2018-06-16T16:50:25Z</time>
      </trkpt>
      <trkpt lat="47.25134" lon="-1.10274">
        <ele>108</ele>
        <time>2018-06-16T16:50:31Z</time>
      </trkpt>
      <trkpt lat="47.25134" lon="-1.10281">
        <ele>108</ele>
        <time>2018-06-16T16:50:32Z</time>
      </trkpt>
      <trkpt lat="47.25134" lon="-1.10318">
        <ele>107</ele>
        <time>2018-06-16T16:50:38Z</time>
      </trkpt>
      <trkpt lat="47.25134" lon="-1.10355">
        <ele>107</ele>
        <time>2018-06-16T16:50:43Z</time>
      </trkpt>
      <trkpt lat="47.25134" lon="-1.10362">
        <ele>107</ele>
        <time>2018-06-16T16:50:44Z</time>
      </trkpt>
      <trkpt lat="47.25134" lon="-1.10418">
        <ele>107</ele>
        <time>2018-06-16T16:50:51Z</time>
      </trkpt>
      <trkpt lat="47.25132" lon="-1.10491">
        <ele>107</ele>
        <time>2018-06-16T16:51:00Z</time>
      </trkpt>
      <trkpt lat="47.25131" lon="-1.10511">
        <ele>107</ele>
        <time>2018-06-16T16:51:03Z</time>
      </trkpt>
      <trkpt lat="47.25129" lon="-1.10527">
        <ele>107</ele>
        <time>2018-06-16T16:51:06Z</time>
      </trkpt>
      <trkpt lat="47.25125" lon="-1.1055">
        <ele>108</ele>
        <time>2018-06-16T16:51:11Z</time>
      </trkpt>
      <trkpt lat="47.25123" lon="-1.10561">
        <ele>108</ele>
        <time>2018-06-16T16:51:13Z</time>
      </trkpt>
      <trkpt lat="47.25117" lon="-1.10595">
        <ele>109</ele>
        <time>2018-06-16T16:51:19Z</time>
      </trkpt>
      <trkpt lat="47.25116" lon="-1.1061">
        <ele>109</ele>
        <time>2018-06-16T16:51:22Z</time>
      </trkpt>
      <trkpt lat="47.25113" lon="-1.10611">
        <ele>109</ele>
        <time>2018-06-16T16:51:23Z</time>
      </trkpt>
      <trkpt lat="47.25113" lon="-1.10609">
        <ele>109</ele>
        <time>2018-06-16T16:51:24Z</time>
      </trkpt>
      <trkpt lat="47.25118" lon="-1.10595">
        <ele>109</ele>
        <time>2018-06-16T16:51:28Z</time>
      </trkpt>
      <trkpt lat="47.25125" lon="-1.10561">
        <ele>109</ele>
        <time>2018-06-16T16:51:33Z</time>
      </trkpt>
      <trkpt lat="47.25135" lon="-1.10501">
        <ele>108</ele>
        <time>2018-06-16T16:51:40Z</time>
      </trkpt>
      <trkpt lat="47.25136" lon="-1.10475">
        <ele>108</ele>
        <time>2018-06-16T16:51:43Z</time>
      </trkpt>
      <trkpt lat="47.25137" lon="-1.10443">
        <ele>107</ele>
        <time>2018-06-16T16:51:47Z</time>
      </trkpt>
      <trkpt lat="47.25136" lon="-1.10376">
        <ele>107</ele>
        <time>2018-06-16T16:51:55Z</time>
      </trkpt>
      <trkpt lat="47.25135" lon="-1.10359">
        <ele>107</ele>
        <time>2018-06-16T16:51:57Z</time>
      </trkpt>
      <trkpt lat="47.25133" lon="-1.1032">
        <ele>107</ele>
        <time>2018-06-16T16:52:02Z</time>
      </trkpt>
      <trkpt lat="47.25131" lon="-1.10292">
        <ele>107</ele>
        <time>2018-06-16T16:52:07Z</time>
      </trkpt>
      <trkpt lat="47.25129" lon="-1.1025">
        <ele>107</ele>
        <time>2018-06-16T16:52:12Z</time>
      </trkpt>
      <trkpt lat="47.25123" lon="-1.10199">
        <ele>107</ele>
        <time>2018-06-16T16:52:18Z</time>
      </trkpt>
      <trkpt lat="47.2512" lon="-1.10158">
        <ele>108</ele>
        <time>2018-06-16T16:52:23Z</time>
      </trkpt>
      <trkpt lat="47.2512" lon="-1.10132">
        <ele>108</ele>
        <time>2018-06-16T16:52:26Z</time>
      </trkpt>
      <trkpt lat="47.2512" lon="-1.10097">
        <ele>109</ele>
        <time>2018-06-16T16:52:30Z</time>
      </trkpt>
      <trkpt lat="47.25119" lon="-1.10065">
        <ele>109</ele>
        <time>2018-06-16T16:52:34Z</time>
      </trkpt>
      <trkpt lat="47.25118" lon="-1.1001">
        <ele>110</ele>
        <time>2018-06-16T16:52:41Z</time>
      </trkpt>
      <trkpt lat="47.25119" lon="-1.09943">
        <ele>109</ele>
        <time>2018-06-16T16:52:49Z</time>
      </trkpt>
      <trkpt lat="47.25122" lon="-1.09886">
        <ele>109</ele>
        <time>2018-06-16T16:52:56Z</time>
      </trkpt>
      <trkpt lat="47.25124" lon="-1.09822">
        <ele>108</ele>
        <time>2018-06-16T16:53:05Z</time>
      </trkpt>
      <trkpt lat="47.25125" lon="-1.09807">
        <ele>108</ele>
        <time>2018-06-16T16:53:09Z</time>
      </trkpt>
      <trkpt lat="47.25128" lon="-1.09807">
        <ele>108</ele>
        <time>2018-06-16T16:53:25Z</time>
      </trkpt>
      <trkpt lat="47.25132" lon="-1.09807">
        <ele>108</ele>
        <time>2018-06-16T16:53:26Z</time>
      </trkpt>
      <trkpt lat="47.25149" lon="-1.09807">
        <ele>108</ele>
        <time>2018-06-16T16:53:30Z</time>
      </trkpt>
      <trkpt lat="47.25166" lon="-1.0981">
        <ele>107</ele>
        <time>2018-06-16T16:53:34Z</time>
      </trkpt>
      <trkpt lat="47.25196" lon="-1.09812">
        <ele>107</ele>
        <time>2018-06-16T16:53:40Z</time>
      </trkpt>
      <trkpt lat="47.25204" lon="-1.09811">
        <ele>107</ele>
        <time>2018-06-16T16:53:42Z</time>
      </trkpt>
      <trkpt lat="47.25224" lon="-1.0981">
        <ele>106</ele>
        <time>2018-06-16T16:53:46Z</time>
      </trkpt>
      <trkpt lat="47.25254" lon="-1.09806">
        <ele>106</ele>
        <time>2018-06-16T16:53:51Z</time>
      </trkpt>
      <trkpt lat="47.2526" lon="-1.09805">
        <ele>105</ele>
        <time>2018-06-16T16:53:52Z</time>
      </trkpt>
      <trkpt lat="47.25295" lon="-1.09797">
        <ele>105</ele>
        <time>2018-06-16T16:53:59Z</time>
      </trkpt>
      <trkpt lat="47.253" lon="-1.09796">
        <ele>104</ele>
        <time>2018-06-16T16:54:00Z</time>
      </trkpt>
      <trkpt lat="47.25331" lon="-1.09786">
        <ele>104</ele>
        <time>2018-06-16T16:54:07Z</time>
      </trkpt>
      <trkpt lat="47.25364" lon="-1.09779">
        <ele>104</ele>
        <time>2018-06-16T16:54:14Z</time>
      </trkpt>
      <trkpt lat="47.25376" lon="-1.09777">
        <ele>103</ele>
        <time>2018-06-16T16:54:17Z</time>
      </trkpt>
      <trkpt lat="47.25388" lon="-1.09775">
        <ele>103</ele>
        <time>2018-06-16T16:54:20Z</time>
      </trkpt>
      <trkpt lat="47.25407" lon="-1.09773">
        <ele>103</ele>
        <time>2018-06-16T16:54:25Z</time>
      </trkpt>
      <trkpt lat="47.25411" lon="-1.09773">
        <ele>103</ele>
        <time>2018-06-16T16:54:26Z</time>
      </trkpt>
      <trkpt lat="47.25432" lon="-1.09778">
        <ele>103</ele>
        <time>2018-06-16T16:54:32Z</time>
      </trkpt>
      <trkpt lat="47.25453" lon="-1.09777">
        <ele>102</ele>
        <time>2018-06-16T16:54:37Z</time>
      </trkpt>
      <trkpt lat="47.25487" lon="-1.09778">
        <ele>102</ele>
        <time>2018-06-16T16:54:46Z</time>
      </trkpt>
      <trkpt lat="47.25511" lon="-1.0978">
        <ele>103</ele>
        <time>2018-06-16T16:54:53Z</time>
      </trkpt>
      <trkpt lat="47.25535" lon="-1.09781">
        <ele>103</ele>
        <time>2018-06-16T16:55:01Z</time>
      </trkpt>
      <trkpt lat="47.25565" lon="-1.09777">
        <ele>103</ele>
        <time>2018-06-16T16:55:10Z</time>
      </trkpt>
      <trkpt lat="47.25588" lon="-1.09768">
        <ele>103</ele>
        <time>2018-06-16T16:55:17Z</time>
      </trkpt>
      <trkpt lat="47.25611" lon="-1.09756">
        <ele>104</ele>
        <time>2018-06-16T16:55:24Z</time>
      </trkpt>
      <trkpt lat="47.2564" lon="-1.09735">
        <ele>104</ele>
        <time>2018-06-16T16:55:32Z</time>
      </trkpt>
      <trkpt lat="47.25646" lon="-1.0973">
        <ele>104</ele>
        <time>2018-06-16T16:55:34Z</time>
      </trkpt>
      <trkpt lat="47.25666" lon="-1.09714">
        <ele>103</ele>
        <time>2018-06-16T16:55:40Z</time>
      </trkpt>
      <trkpt lat="47.2567" lon="-1.09711">
        <ele>103</ele>
        <time>2018-06-16T16:55:41Z</time>
      </trkpt>
      <trkpt lat="47.25697" lon="-1.09691">
        <ele>103</ele>
        <time>2018-06-16T16:55:48Z</time>
      </trkpt>
      <trkpt lat="47.25726" lon="-1.09668">
        <ele>103</ele>
        <time>2018-06-16T16:55:56Z</time>
      </trkpt>
      <trkpt lat="47.25745" lon="-1.09655">
        <ele>103</ele>
        <time>2018-06-16T16:56:01Z</time>
      </trkpt>
      <trkpt lat="47.25778" lon="-1.09636">
        <ele>103</ele>
        <time>2018-06-16T16:56:08Z</time>
      </trkpt>
      <trkpt lat="47.25787" lon="-1.09631">
        <ele>102</ele>
        <time>2018-06-16T16:56:10Z</time>
      </trkpt>
      <trkpt lat="47.25811" lon="-1.09618">
        <ele>102</ele>
        <time>2018-06-16T16:56:16Z</time>
      </trkpt>
      <trkpt lat="47.25848" lon="-1.09607">
        <ele>102</ele>
        <time>2018-06-16T16:56:24Z</time>
      </trkpt>
      <trkpt lat="47.25882" lon="-1.09595">
        <ele>102</ele>
        <time>2018-06-16T16:56:31Z</time>
      </trkpt>
      <trkpt lat="47.25892" lon="-1.0959">
        <ele>101</ele>
        <time>2018-06-16T16:56:33Z</time>
      </trkpt>
      <trkpt lat="47.25914" lon="-1.09574">
        <ele>101</ele>
        <time>2018-06-16T16:56:38Z</time>
      </trkpt>
      <trkpt lat="47.25938" lon="-1.09546">
        <ele>100</ele>
        <time>2018-06-16T16:56:44Z</time>
      </trkpt>
      <trkpt lat="47.25951" lon="-1.09532">
        <ele>100</ele>
        <time>2018-06-16T16:56:47Z</time>
      </trkpt>
      <trkpt lat="47.25968" lon="-1.09513">
        <ele>99</ele>
        <time>2018-06-16T16:56:51Z</time>
      </trkpt>
      <trkpt lat="47.25995" lon="-1.09474">
        <ele>98</ele>
        <time>2018-06-16T16:56:57Z</time>
      </trkpt>
      <trkpt lat="47.25999" lon="-1.09467">
        <ele>98</ele>
        <time>2018-06-16T16:56:58Z</time>
      </trkpt>
      <trkpt lat="47.26017" lon="-1.09438">
        <ele>97</ele>
        <time>2018-06-16T16:57:02Z</time>
      </trkpt>
      <trkpt lat="47.2603" lon="-1.09416">
        <ele>96</ele>
        <time>2018-06-16T16:57:05Z</time>
      </trkpt>
      <trkpt lat="47.26034" lon="-1.09409">
        <ele>96</ele>
        <time>2018-06-16T16:57:06Z</time>
      </trkpt>
      <trkpt lat="47.26046" lon="-1.09386">
        <ele>95</ele>
        <time>2018-06-16T16:57:09Z</time>
      </trkpt>
      <trkpt lat="47.26059" lon="-1.09358">
        <ele>94</ele>
        <time>2018-06-16T16:57:13Z</time>
      </trkpt>
      <trkpt lat="47.26075" lon="-1.09322">
        <ele>92</ele>
        <time>2018-06-16T16:57:18Z</time>
      </trkpt>
      <trkpt lat="47.2608" lon="-1.09307">
        <ele>92</ele>
        <time>2018-06-16T16:57:20Z</time>
      </trkpt>
      <trkpt lat="47.26082" lon="-1.09299">
        <ele>92</ele>
        <time>2018-06-16T16:57:21Z</time>
      </trkpt>
      <trkpt lat="47.26091" lon="-1.09268">
        <ele>91</ele>
        <time>2018-06-16T16:57:25Z</time>
      </trkpt>
      <trkpt lat="47.26111" lon="-1.0923">
        <ele>91</ele>
        <time>2018-06-16T16:57:31Z</time>
      </trkpt>
      <trkpt lat="47.26122" lon="-1.09213">
        <ele>91</ele>
        <time>2018-06-16T16:57:34Z</time>
      </trkpt>
      <trkpt lat="47.2613" lon="-1.09203">
        <ele>91</ele>
        <time>2018-06-16T16:57:36Z</time>
      </trkpt>
      <trkpt lat="47.26136" lon="-1.09194">
        <ele>91</ele>
        <time>2018-06-16T16:57:38Z</time>
      </trkpt>
      <trkpt lat="47.26143" lon="-1.09182">
        <ele>92</ele>
        <time>2018-06-16T16:57:41Z</time>
      </trkpt>
      <trkpt lat="47.26148" lon="-1.09172">
        <ele>93</ele>
        <time>2018-06-16T16:57:44Z</time>
      </trkpt>
      <trkpt lat="47.26151" lon="-1.09164">
        <ele>93</ele>
        <time>2018-06-16T16:57:46Z</time>
      </trkpt>
      <trkpt lat="47.26156" lon="-1.09131">
        <ele>94</ele>
        <time>2018-06-16T16:57:52Z</time>
      </trkpt>
      <trkpt lat="47.26155" lon="-1.09113">
        <ele>94</ele>
        <time>2018-06-16T16:57:55Z</time>
      </trkpt>
      <trkpt lat="47.26151" lon="-1.09097">
        <ele>95</ele>
        <time>2018-06-16T16:57:58Z</time>
      </trkpt>
      <trkpt lat="47.26142" lon="-1.0906">
        <ele>96</ele>
        <time>2018-06-16T16:58:06Z</time>
      </trkpt>
      <trkpt lat="47.26141" lon="-1.09057">
        <ele>96</ele>
        <time>2018-06-16T16:58:07Z</time>
      </trkpt>
      <trkpt lat="47.2614" lon="-1.09049">
        <ele>96</ele>
        <time>2018-06-16T16:58:11Z</time>
      </trkpt>
      <trkpt lat="47.26141" lon="-1.09043">
        <ele>97</ele>
        <time>2018-06-16T16:58:14Z</time>
      </trkpt>
      <trkpt lat="47.26144" lon="-1.09036">
        <ele>97</ele>
        <time>2018-06-16T16:58:17Z</time>
      </trkpt>
      <trkpt lat="47.26159" lon="-1.09022">
        <ele>98</ele>
        <time>2018-06-16T16:58:23Z</time>
      </trkpt>
      <trkpt lat="47.26175" lon="-1.09009">
        <ele>98</ele>
        <time>2018-06-16T16:58:29Z</time>
      </trkpt>
      <trkpt lat="47.2618" lon="-1.09005">
        <ele>98</ele>
        <time>2018-06-16T16:58:31Z</time>
      </trkpt>
      <trkpt lat="47.26203" lon="-1.08989">
        <ele>98</ele>
        <time>2018-06-16T16:58:38Z</time>
      </trkpt>
      <trkpt lat="47.26221" lon="-1.08976">
        <ele>98</ele>
        <time>2018-06-16T16:58:45Z</time>
      </trkpt>
      <trkpt lat="47.26225" lon="-1.08971">
        <ele>98</ele>
        <time>2018-06-16T16:58:47Z</time>
      </trkpt>
      <trkpt lat="47.26226" lon="-1.08964">
        <ele>98</ele>
        <time>2018-06-16T16:58:49Z</time>
      </trkpt>
      <trkpt lat="47.26223" lon="-1.08952">
        <ele>98</ele>
        <time>2018-06-16T16:58:52Z</time>
      </trkpt>
      <trkpt lat="47.26221" lon="-1.08945">
        <ele>98</ele>
        <time>2018-06-16T16:58:54Z</time>
      </trkpt>
      <trkpt lat="47.26213" lon="-1.08923">
        <ele>99</ele>
        <time>2018-06-16T16:59:00Z</time>
      </trkpt>
      <trkpt lat="47.2621" lon="-1.08907">
        <ele>99</ele>
        <time>2018-06-16T16:59:05Z</time>
      </trkpt>
      <trkpt lat="47.26207" lon="-1.08899">
        <ele>99</ele>
        <time>2018-06-16T16:59:07Z</time>
      </trkpt>
      <trkpt lat="47.26196" lon="-1.08871">
        <ele>100</ele>
        <time>2018-06-16T16:59:13Z</time>
      </trkpt>
      <trkpt lat="47.26195" lon="-1.08867">
        <ele>100</ele>
        <time>2018-06-16T16:59:14Z</time>
      </trkpt>
      <trkpt lat="47.26188" lon="-1.08844">
        <ele>101</ele>
        <time>2018-06-16T16:59:19Z</time>
      </trkpt>
      <trkpt lat="47.26187" lon="-1.08839">
        <ele>102</ele>
        <time>2018-06-16T16:59:20Z</time>
      </trkpt>
      <trkpt lat="47.26183" lon="-1.08825">
        <ele>102</ele>
        <time>2018-06-16T16:59:23Z</time>
      </trkpt>
      <trkpt lat="47.26181" lon="-1.08815">
        <ele>103</ele>
        <time>2018-06-16T16:59:25Z</time>
      </trkpt>
      <trkpt lat="47.26175" lon="-1.08794">
        <ele>103</ele>
        <time>2018-06-16T16:59:29Z</time>
      </trkpt>
      <trkpt lat="47.2617" lon="-1.08781">
        <ele>104</ele>
        <time>2018-06-16T16:59:32Z</time>
      </trkpt>
      <trkpt lat="47.26165" lon="-1.08762">
        <ele>104</ele>
        <time>2018-06-16T16:59:37Z</time>
      </trkpt>
      <trkpt lat="47.26164" lon="-1.08755">
        <ele>105</ele>
        <time>2018-06-16T16:59:39Z</time>
      </trkpt>
      <trkpt lat="47.26164" lon="-1.08731">
        <ele>105</ele>
        <time>2018-06-16T16:59:45Z</time>
      </trkpt>
      <trkpt lat="47.26165" lon="-1.08722">
        <ele>105</ele>
        <time>2018-06-16T16:59:47Z</time>
      </trkpt>
      <trkpt lat="47.26167" lon="-1.08704">
        <ele>106</ele>
        <time>2018-06-16T16:59:51Z</time>
      </trkpt>
      <trkpt lat="47.26171" lon="-1.08659">
        <ele>106</ele>
        <time>2018-06-16T17:00:00Z</time>
      </trkpt>
      <trkpt lat="47.26173" lon="-1.0864">
        <ele>106</ele>
        <time>2018-06-16T17:00:04Z</time>
      </trkpt>
      <trkpt lat="47.26176" lon="-1.0862">
        <ele>107</ele>
        <time>2018-06-16T17:00:08Z</time>
      </trkpt>
      <trkpt lat="47.2618" lon="-1.08583">
        <ele>107</ele>
        <time>2018-06-16T17:00:15Z</time>
      </trkpt>
      <trkpt lat="47.26181" lon="-1.08572">
        <ele>108</ele>
        <time>2018-06-16T17:00:17Z</time>
      </trkpt>
      <trkpt lat="47.26185" lon="-1.08515">
        <ele>108</ele>
        <time>2018-06-16T17:00:28Z</time>
      </trkpt>
      <trkpt lat="47.26186" lon="-1.085">
        <ele>109</ele>
        <time>2018-06-16T17:00:31Z</time>
      </trkpt>
      <trkpt lat="47.26186" lon="-1.08463">
        <ele>109</ele>
        <time>2018-06-16T17:00:38Z</time>
      </trkpt>
      <trkpt lat="47.26187" lon="-1.08442">
        <ele>110</ele>
        <time>2018-06-16T17:00:42Z</time>
      </trkpt>
      <trkpt lat="47.26188" lon="-1.08413">
        <ele>110</ele>
        <time>2018-06-16T17:00:48Z</time>
      </trkpt>
      <trkpt lat="47.26189" lon="-1.0839">
        <ele>110</ele>
        <time>2018-06-16T17:00:55Z</time>
      </trkpt>
      <trkpt lat="47.26194" lon="-1.08383">
        <ele>111</ele>
        <time>2018-06-16T17:02:11Z</time>
      </trkpt>
      <trkpt lat="47.26196" lon="-1.08381">
        <ele>111</ele>
        <time>2018-06-16T17:02:12Z</time>
      </trkpt>
      <trkpt lat="47.26212" lon="-1.08369">
        <ele>111</ele>
        <time>2018-06-16T17:02:17Z</time>
      </trkpt>
      <trkpt lat="47.26237" lon="-1.0835">
        <ele>111</ele>
        <time>2018-06-16T17:02:23Z</time>
      </trkpt>
      <trkpt lat="47.26273" lon="-1.08331">
        <ele>112</ele>
        <time>2018-06-16T17:02:30Z</time>
      </trkpt>
      <trkpt lat="47.26327" lon="-1.08306">
        <ele>112</ele>
        <time>2018-06-16T17:02:39Z</time>
      </trkpt>
      <trkpt lat="47.2634" lon="-1.08304">
        <ele>112</ele>
        <time>2018-06-16T17:02:41Z</time>
      </trkpt>
      <trkpt lat="47.26354" lon="-1.08306">
        <ele>112</ele>
        <time>2018-06-16T17:02:43Z</time>
      </trkpt>
      <trkpt lat="47.26375" lon="-1.08314">
        <ele>111</ele>
        <time>2018-06-16T17:02:46Z</time>
      </trkpt>
      <trkpt lat="47.26389" lon="-1.0832">
        <ele>111</ele>
        <time>2018-06-16T17:02:48Z</time>
      </trkpt>
      <trkpt lat="47.26443" lon="-1.08342">
        <ele>110</ele>
        <time>2018-06-16T17:02:56Z</time>
      </trkpt>
      <trkpt lat="47.26491" lon="-1.08359">
        <ele>109</ele>
        <time>2018-06-16T17:03:04Z</time>
      </trkpt>
      <trkpt lat="47.26534" lon="-1.08377">
        <ele>109</ele>
        <time>2018-06-16T17:03:12Z</time>
      </trkpt>
      <trkpt lat="47.26544" lon="-1.08378">
        <ele>109</ele>
        <time>2018-06-16T17:03:15Z</time>
      </trkpt>
      <trkpt lat="47.26548" lon="-1.08363">
        <ele>109</ele>
        <time>2018-06-16T17:03:19Z</time>
      </trkpt>
      <trkpt lat="47.26548" lon="-1.08359">
        <ele>109</ele>
        <time>2018-06-16T17:03:20Z</time>
      </trkpt>
      <trkpt lat="47.26551" lon="-1.08336">
        <ele>109</ele>
        <time>2018-06-16T17:03:26Z</time>
      </trkpt>
      <trkpt lat="47.26553" lon="-1.08308">
        <ele>109</ele>
        <time>2018-06-16T17:03:33Z</time>
      </trkpt>
      <trkpt lat="47.26553" lon="-1.08268">
        <ele>109</ele>
        <time>2018-06-16T17:03:40Z</time>
      </trkpt>
      <trkpt lat="47.26549" lon="-1.08217">
        <ele>109</ele>
        <time>2018-06-16T17:03:47Z</time>
      </trkpt>
      <trkpt lat="47.26542" lon="-1.08161">
        <ele>109</ele>
        <time>2018-06-16T17:03:55Z</time>
      </trkpt>
      <trkpt lat="47.26536" lon="-1.08112">
        <ele>108</ele>
        <time>2018-06-16T17:04:01Z</time>
      </trkpt>
      <trkpt lat="47.26535" lon="-1.08104">
        <ele>107</ele>
        <time>2018-06-16T17:04:02Z</time>
      </trkpt>
      <trkpt lat="47.26532" lon="-1.08078">
        <ele>107</ele>
        <time>2018-06-16T17:04:05Z</time>
      </trkpt>
      <trkpt lat="47.26529" lon="-1.08056">
        <ele>105</ele>
        <time>2018-06-16T17:04:08Z</time>
      </trkpt>
      <trkpt lat="47.26526" lon="-1.08036">
        <ele>104</ele>
        <time>2018-06-16T17:04:13Z</time>
      </trkpt>
      <trkpt lat="47.26525" lon="-1.08026">
        <ele>104</ele>
        <time>2018-06-16T17:04:15Z</time>
      </trkpt>
      <trkpt lat="47.26522" lon="-1.08003">
        <ele>104</ele>
        <time>2018-06-16T17:04:19Z</time>
      </trkpt>
      <trkpt lat="47.26519" lon="-1.07977">
        <ele>103</ele>
        <time>2018-06-16T17:04:23Z</time>
      </trkpt>
      <trkpt lat="47.26518" lon="-1.07965">
        <ele>103</ele>
        <time>2018-06-16T17:04:25Z</time>
      </trkpt>
      <trkpt lat="47.26518" lon="-1.07959">
        <ele>103</ele>
        <time>2018-06-16T17:04:26Z</time>
      </trkpt>
      <trkpt lat="47.26516" lon="-1.07916">
        <ele>103</ele>
        <time>2018-06-16T17:04:33Z</time>
      </trkpt>
      <trkpt lat="47.26517" lon="-1.07867">
        <ele>103</ele>
        <time>2018-06-16T17:04:41Z</time>
      </trkpt>
      <trkpt lat="47.26516" lon="-1.07827">
        <ele>104</ele>
        <time>2018-06-16T17:04:49Z</time>
      </trkpt>
      <trkpt lat="47.26516" lon="-1.07822">
        <ele>104</ele>
        <time>2018-06-16T17:04:50Z</time>
      </trkpt>
      <trkpt lat="47.26513" lon="-1.07793">
        <ele>105</ele>
        <time>2018-06-16T17:04:57Z</time>
      </trkpt>
      <trkpt lat="47.2651" lon="-1.07775">
        <ele>105</ele>
        <time>2018-06-16T17:05:01Z</time>
      </trkpt>
      <trkpt lat="47.26507" lon="-1.07759">
        <ele>105</ele>
        <time>2018-06-16T17:05:05Z</time>
      </trkpt>
      <trkpt lat="47.26505" lon="-1.07729">
        <ele>106</ele>
        <time>2018-06-16T17:05:10Z</time>
      </trkpt>
      <trkpt lat="47.26505" lon="-1.07711">
        <ele>106</ele>
        <time>2018-06-16T17:05:13Z</time>
      </trkpt>
      <trkpt lat="47.26506" lon="-1.07704">
        <ele>106</ele>
        <time>2018-06-16T17:05:14Z</time>
      </trkpt>
      <trkpt lat="47.26507" lon="-1.07686">
        <ele>106</ele>
        <time>2018-06-16T17:05:17Z</time>
      </trkpt>
      <trkpt lat="47.26512" lon="-1.07652">
        <ele>107</ele>
        <time>2018-06-16T17:05:23Z</time>
      </trkpt>
      <trkpt lat="47.26518" lon="-1.0762">
        <ele>107</ele>
        <time>2018-06-16T17:05:28Z</time>
      </trkpt>
      <trkpt lat="47.2652" lon="-1.07608">
        <ele>108</ele>
        <time>2018-06-16T17:05:30Z</time>
      </trkpt>
      <trkpt lat="47.26529" lon="-1.0758">
        <ele>108</ele>
        <time>2018-06-16T17:05:36Z</time>
      </trkpt>
      <trkpt lat="47.26533" lon="-1.07562">
        <ele>108</ele>
        <time>2018-06-16T17:05:41Z</time>
      </trkpt>
      <trkpt lat="47.26543" lon="-1.07556">
        <ele>108</ele>
        <time>2018-06-16T17:07:17Z</time>
      </trkpt>
      <trkpt lat="47.26551" lon="-1.07565">
        <ele>108</ele>
        <time>2018-06-16T17:07:21Z</time>
      </trkpt>
      <trkpt lat="47.26554" lon="-1.07568">
        <ele>108</ele>
        <time>2018-06-16T17:07:22Z</time>
      </trkpt>
      <trkpt lat="47.26579" lon="-1.07588">
        <ele>108</ele>
        <time>2018-06-16T17:07:29Z</time>
      </trkpt>
      <trkpt lat="47.26594" lon="-1.07591">
        <ele>108</ele>
        <time>2018-06-16T17:07:32Z</time>
      </trkpt>
      <trkpt lat="47.26604" lon="-1.07591">
        <ele>107</ele>
        <time>2018-06-16T17:07:34Z</time>
      </trkpt>
      <trkpt lat="47.26636" lon="-1.07581">
        <ele>106</ele>
        <time>2018-06-16T17:07:40Z</time>
      </trkpt>
      <trkpt lat="47.26641" lon="-1.07578">
        <ele>106</ele>
        <time>2018-06-16T17:07:41Z</time>
      </trkpt>
      <trkpt lat="47.26668" lon="-1.07563">
        <ele>105</ele>
        <time>2018-06-16T17:07:46Z</time>
      </trkpt>
      <trkpt lat="47.26686" lon="-1.07554">
        <ele>105</ele>
        <time>2018-06-16T17:07:49Z</time>
      </trkpt>
      <trkpt lat="47.26705" lon="-1.07545">
        <ele>104</ele>
        <time>2018-06-16T17:07:52Z</time>
      </trkpt>
      <trkpt lat="47.26732" lon="-1.07535">
        <ele>104</ele>
        <time>2018-06-16T17:07:56Z</time>
      </trkpt>
      <trkpt lat="47.26747" lon="-1.07531">
        <ele>103</ele>
        <time>2018-06-16T17:07:58Z</time>
      </trkpt>
      <trkpt lat="47.26781" lon="-1.07525">
        <ele>102</ele>
        <time>2018-06-16T17:08:02Z</time>
      </trkpt>
      <trkpt lat="47.26808" lon="-1.07519">
        <ele>101</ele>
        <time>2018-06-16T17:08:05Z</time>
      </trkpt>
      <trkpt lat="47.26835" lon="-1.07509">
        <ele>99</ele>
        <time>2018-06-16T17:08:08Z</time>
      </trkpt>
      <trkpt lat="47.26854" lon="-1.07502">
        <ele>98</ele>
        <time>2018-06-16T17:08:10Z</time>
      </trkpt>
      <trkpt lat="47.26882" lon="-1.07487">
        <ele>97</ele>
        <time>2018-06-16T17:08:13Z</time>
      </trkpt>
      <trkpt lat="47.26892" lon="-1.07482">
        <ele>96</ele>
        <time>2018-06-16T17:08:14Z</time>
      </trkpt>
      <trkpt lat="47.26911" lon="-1.07471">
        <ele>95</ele>
        <time>2018-06-16T17:08:16Z</time>
      </trkpt>
      <trkpt lat="47.26939" lon="-1.07455">
        <ele>94</ele>
        <time>2018-06-16T17:08:19Z</time>
      </trkpt>
      <trkpt lat="47.26967" lon="-1.0744">
        <ele>93</ele>
        <time>2018-06-16T17:08:22Z</time>
      </trkpt>
      <trkpt lat="47.26986" lon="-1.07431">
        <ele>92</ele>
        <time>2018-06-16T17:08:24Z</time>
      </trkpt>
      <trkpt lat="47.26995" lon="-1.07426">
        <ele>92</ele>
        <time>2018-06-16T17:08:25Z</time>
      </trkpt>
      <trkpt lat="47.27029" lon="-1.07408">
        <ele>91</ele>
        <time>2018-06-16T17:08:29Z</time>
      </trkpt>
      <trkpt lat="47.27046" lon="-1.07399">
        <ele>90</ele>
        <time>2018-06-16T17:08:31Z</time>
      </trkpt>
      <trkpt lat="47.27054" lon="-1.07395">
        <ele>90</ele>
        <time>2018-06-16T17:08:32Z</time>
      </trkpt>
      <trkpt lat="47.2707" lon="-1.07389">
        <ele>88</ele>
        <time>2018-06-16T17:08:34Z</time>
      </trkpt>
      <trkpt lat="47.27093" lon="-1.07381">
        <ele>87</ele>
        <time>2018-06-16T17:08:37Z</time>
      </trkpt>
      <trkpt lat="47.27105" lon="-1.07377">
        <ele>86</ele>
        <time>2018-06-16T17:08:39Z</time>
      </trkpt>
      <trkpt lat="47.27119" lon="-1.07373">
        <ele>85</ele>
        <time>2018-06-16T17:08:42Z</time>
      </trkpt>
      <trkpt lat="47.27124" lon="-1.07369">
        <ele>84</ele>
        <time>2018-06-16T17:08:44Z</time>
      </trkpt>
      <trkpt lat="47.27126" lon="-1.07365">
        <ele>84</ele>
        <time>2018-06-16T17:08:45Z</time>
      </trkpt>
      <trkpt lat="47.27133" lon="-1.07337">
        <ele>84</ele>
        <time>2018-06-16T17:08:50Z</time>
      </trkpt>
      <trkpt lat="47.27137" lon="-1.07318">
        <ele>83</ele>
        <time>2018-06-16T17:08:53Z</time>
      </trkpt>
      <trkpt lat="47.27144" lon="-1.07307">
        <ele>83</ele>
        <time>2018-06-16T17:08:56Z</time>
      </trkpt>
      <trkpt lat="47.27148" lon="-1.07306">
        <ele>83</ele>
        <time>2018-06-16T17:08:58Z</time>
      </trkpt>
      <trkpt lat="47.27151" lon="-1.07305">
        <ele>82</ele>
        <time>2018-06-16T17:09:23Z</time>
      </trkpt>
      <trkpt lat="47.27155" lon="-1.07305">
        <ele>82</ele>
        <time>2018-06-16T17:09:25Z</time>
      </trkpt>
      <trkpt lat="47.27174" lon="-1.07301">
        <ele>82</ele>
        <time>2018-06-16T17:09:31Z</time>
      </trkpt>
      <trkpt lat="47.27184" lon="-1.07296">
        <ele>82</ele>
        <time>2018-06-16T17:09:36Z</time>
      </trkpt>
    </trkseg>
  </trk>
</gpx>